<?xml version="1.0" encoding="UTF-8" standalone="no" ?>
<gpx xmlns="http://www.topografix.com/GPX/1/1" xmlns:xsi="http://www.w3.org/2001/XMLSchema-instance" xsi:schemaLocation="http://www.topografix.com/GPX/1/1 http://www.topografix.com/GPX/1/1/gpx.xsd" version="1.1" creator="VisuGPX - https://www.visugpx.com">
  <metadata>
    <name>2013 05 27 - VTT Quint</name>
    <desc><![CDATA[2013 05 27 - VTT Quint]]></desc>
  </metadata>
  <trk>
    <name><![CDATA[Tracé actuel: 27 MAI 2013 18:10]]></name>
    <trkseg>
      <trkpt lat="43.60043" lon="1.60315">
        <ele>225</ele>
        <time>2013-05-27T16:10:35Z</time>
      </trkpt>
      <trkpt lat="43.60067" lon="1.60243">
        <ele>226</ele>
        <time>2013-05-27T16:10:43Z</time>
      </trkpt>
      <trkpt lat="43.60086" lon="1.60167">
        <ele>226</ele>
        <time>2013-05-27T16:10:51Z</time>
      </trkpt>
      <trkpt lat="43.60102" lon="1.60088">
        <ele>223</ele>
        <time>2013-05-27T16:10:58Z</time>
      </trkpt>
      <trkpt lat="43.60102" lon="1.60076">
        <ele>222</ele>
        <time>2013-05-27T16:10:59Z</time>
      </trkpt>
      <trkpt lat="43.60101" lon="1.60064">
        <ele>223</ele>
        <time>2013-05-27T16:11:00Z</time>
      </trkpt>
      <trkpt lat="43.60098" lon="1.60054">
        <ele>223</ele>
        <time>2013-05-27T16:11:01Z</time>
      </trkpt>
      <trkpt lat="43.60093" lon="1.60047">
        <ele>223</ele>
        <time>2013-05-27T16:11:02Z</time>
      </trkpt>
      <trkpt lat="43.60087" lon="1.60041">
        <ele>223</ele>
        <time>2013-05-27T16:11:03Z</time>
      </trkpt>
      <trkpt lat="43.60082" lon="1.60037">
        <ele>223</ele>
        <time>2013-05-27T16:11:04Z</time>
      </trkpt>
      <trkpt lat="43.60037" lon="1.60003">
        <ele>224</ele>
        <time>2013-05-27T16:11:13Z</time>
      </trkpt>
      <trkpt lat="43.59996" lon="1.59979">
        <ele>221</ele>
        <time>2013-05-27T16:11:22Z</time>
      </trkpt>
      <trkpt lat="43.59964" lon="1.59961">
        <ele>219</ele>
        <time>2013-05-27T16:11:27Z</time>
      </trkpt>
      <trkpt lat="43.5994" lon="1.59943">
        <ele>217</ele>
        <time>2013-05-27T16:11:30Z</time>
      </trkpt>
      <trkpt lat="43.59935" lon="1.59936">
        <ele>216</ele>
        <time>2013-05-27T16:11:31Z</time>
      </trkpt>
      <trkpt lat="43.59931" lon="1.5993">
        <ele>215</ele>
        <time>2013-05-27T16:11:32Z</time>
      </trkpt>
      <trkpt lat="43.59929" lon="1.59924">
        <ele>215</ele>
        <time>2013-05-27T16:11:33Z</time>
      </trkpt>
      <trkpt lat="43.59929" lon="1.59918">
        <ele>215</ele>
        <time>2013-05-27T16:11:34Z</time>
      </trkpt>
      <trkpt lat="43.59931" lon="1.59912">
        <ele>214</ele>
        <time>2013-05-27T16:11:35Z</time>
      </trkpt>
      <trkpt lat="43.59933" lon="1.59907">
        <ele>215</ele>
        <time>2013-05-27T16:11:36Z</time>
      </trkpt>
      <trkpt lat="43.5995" lon="1.59865">
        <ele>216</ele>
        <time>2013-05-27T16:11:44Z</time>
      </trkpt>
      <trkpt lat="43.59962" lon="1.59832">
        <ele>215</ele>
        <time>2013-05-27T16:11:51Z</time>
      </trkpt>
      <trkpt lat="43.5997" lon="1.59813">
        <ele>216</ele>
        <time>2013-05-27T16:11:55Z</time>
      </trkpt>
      <trkpt lat="43.59972" lon="1.59808">
        <ele>216</ele>
        <time>2013-05-27T16:11:56Z</time>
      </trkpt>
      <trkpt lat="43.59991" lon="1.59764">
        <ele>217</ele>
        <time>2013-05-27T16:12:04Z</time>
      </trkpt>
      <trkpt lat="43.59994" lon="1.59758">
        <ele>218</ele>
        <time>2013-05-27T16:12:05Z</time>
      </trkpt>
      <trkpt lat="43.6" lon="1.59748">
        <ele>219</ele>
        <time>2013-05-27T16:12:07Z</time>
      </trkpt>
      <trkpt lat="43.60033" lon="1.59704">
        <ele>219</ele>
        <time>2013-05-27T16:12:15Z</time>
      </trkpt>
      <trkpt lat="43.60072" lon="1.59655">
        <ele>218</ele>
        <time>2013-05-27T16:12:22Z</time>
      </trkpt>
      <trkpt lat="43.6012" lon="1.59608">
        <ele>219</ele>
        <time>2013-05-27T16:12:29Z</time>
      </trkpt>
      <trkpt lat="43.60154" lon="1.59568">
        <ele>217</ele>
        <time>2013-05-27T16:12:35Z</time>
      </trkpt>
      <trkpt lat="43.60173" lon="1.59527">
        <ele>218</ele>
        <time>2013-05-27T16:12:41Z</time>
      </trkpt>
      <trkpt lat="43.60193" lon="1.59482">
        <ele>216</ele>
        <time>2013-05-27T16:12:49Z</time>
      </trkpt>
      <trkpt lat="43.60213" lon="1.59427">
        <ele>217</ele>
        <time>2013-05-27T16:12:58Z</time>
      </trkpt>
      <trkpt lat="43.60227" lon="1.59385">
        <ele>217</ele>
        <time>2013-05-27T16:13:05Z</time>
      </trkpt>
      <trkpt lat="43.60242" lon="1.5935">
        <ele>219</ele>
        <time>2013-05-27T16:13:11Z</time>
      </trkpt>
      <trkpt lat="43.60242" lon="1.59343">
        <ele>219</ele>
        <time>2013-05-27T16:13:12Z</time>
      </trkpt>
      <trkpt lat="43.60241" lon="1.59336">
        <ele>220</ele>
        <time>2013-05-27T16:13:13Z</time>
      </trkpt>
      <trkpt lat="43.60239" lon="1.59328">
        <ele>220</ele>
        <time>2013-05-27T16:13:14Z</time>
      </trkpt>
      <trkpt lat="43.60235" lon="1.59321">
        <ele>219</ele>
        <time>2013-05-27T16:13:15Z</time>
      </trkpt>
      <trkpt lat="43.60231" lon="1.59315">
        <ele>219</ele>
        <time>2013-05-27T16:13:16Z</time>
      </trkpt>
      <trkpt lat="43.60226" lon="1.59309">
        <ele>218</ele>
        <time>2013-05-27T16:13:17Z</time>
      </trkpt>
      <trkpt lat="43.60173" lon="1.59239">
        <ele>217</ele>
        <time>2013-05-27T16:13:27Z</time>
      </trkpt>
      <trkpt lat="43.60131" lon="1.59175">
        <ele>214</ele>
        <time>2013-05-27T16:13:35Z</time>
      </trkpt>
      <trkpt lat="43.6011" lon="1.59137">
        <ele>216</ele>
        <time>2013-05-27T16:13:40Z</time>
      </trkpt>
      <trkpt lat="43.60108" lon="1.59129">
        <ele>216</ele>
        <time>2013-05-27T16:13:41Z</time>
      </trkpt>
      <trkpt lat="43.60107" lon="1.59121">
        <ele>216</ele>
        <time>2013-05-27T16:13:42Z</time>
      </trkpt>
      <trkpt lat="43.60106" lon="1.59113">
        <ele>216</ele>
        <time>2013-05-27T16:13:43Z</time>
      </trkpt>
      <trkpt lat="43.60105" lon="1.59105">
        <ele>216</ele>
        <time>2013-05-27T16:13:44Z</time>
      </trkpt>
      <trkpt lat="43.60105" lon="1.59097">
        <ele>215</ele>
        <time>2013-05-27T16:13:45Z</time>
      </trkpt>
      <trkpt lat="43.60109" lon="1.59044">
        <ele>215</ele>
        <time>2013-05-27T16:13:52Z</time>
      </trkpt>
      <trkpt lat="43.6011" lon="1.59037">
        <ele>215</ele>
        <time>2013-05-27T16:13:53Z</time>
      </trkpt>
      <trkpt lat="43.60125" lon="1.58985">
        <ele>213</ele>
        <time>2013-05-27T16:14:00Z</time>
      </trkpt>
      <trkpt lat="43.60143" lon="1.5892">
        <ele>215</ele>
        <time>2013-05-27T16:14:08Z</time>
      </trkpt>
      <trkpt lat="43.60151" lon="1.58878">
        <ele>212</ele>
        <time>2013-05-27T16:14:13Z</time>
      </trkpt>
      <trkpt lat="43.60177" lon="1.58796">
        <ele>215</ele>
        <time>2013-05-27T16:14:23Z</time>
      </trkpt>
      <trkpt lat="43.60206" lon="1.58703">
        <ele>210</ele>
        <time>2013-05-27T16:14:33Z</time>
      </trkpt>
      <trkpt lat="43.60232" lon="1.58608">
        <ele>208</ele>
        <time>2013-05-27T16:14:43Z</time>
      </trkpt>
      <trkpt lat="43.60241" lon="1.58532">
        <ele>207</ele>
        <time>2013-05-27T16:14:51Z</time>
      </trkpt>
      <trkpt lat="43.60243" lon="1.58467">
        <ele>208</ele>
        <time>2013-05-27T16:14:58Z</time>
      </trkpt>
      <trkpt lat="43.60244" lon="1.58458">
        <ele>208</ele>
        <time>2013-05-27T16:14:59Z</time>
      </trkpt>
      <trkpt lat="43.60245" lon="1.58449">
        <ele>208</ele>
        <time>2013-05-27T16:15:00Z</time>
      </trkpt>
      <trkpt lat="43.60264" lon="1.58366">
        <ele>210</ele>
        <time>2013-05-27T16:15:09Z</time>
      </trkpt>
      <trkpt lat="43.60285" lon="1.58292">
        <ele>207</ele>
        <time>2013-05-27T16:15:16Z</time>
      </trkpt>
      <trkpt lat="43.60328" lon="1.58197">
        <ele>202</ele>
        <time>2013-05-27T16:15:25Z</time>
      </trkpt>
      <trkpt lat="43.60374" lon="1.58102">
        <ele>198</ele>
        <time>2013-05-27T16:15:33Z</time>
      </trkpt>
      <trkpt lat="43.6041" lon="1.5804">
        <ele>193</ele>
        <time>2013-05-27T16:15:38Z</time>
      </trkpt>
      <trkpt lat="43.60415" lon="1.58029">
        <ele>193</ele>
        <time>2013-05-27T16:15:39Z</time>
      </trkpt>
      <trkpt lat="43.60418" lon="1.58017">
        <ele>192</ele>
        <time>2013-05-27T16:15:40Z</time>
      </trkpt>
      <trkpt lat="43.60418" lon="1.58004">
        <ele>191</ele>
        <time>2013-05-27T16:15:41Z</time>
      </trkpt>
      <trkpt lat="43.60415" lon="1.57991">
        <ele>189</ele>
        <time>2013-05-27T16:15:42Z</time>
      </trkpt>
      <trkpt lat="43.60411" lon="1.57979">
        <ele>188</ele>
        <time>2013-05-27T16:15:43Z</time>
      </trkpt>
      <trkpt lat="43.60406" lon="1.57966">
        <ele>187</ele>
        <time>2013-05-27T16:15:44Z</time>
      </trkpt>
      <trkpt lat="43.60385" lon="1.5791">
        <ele>179</ele>
        <time>2013-05-27T16:15:49Z</time>
      </trkpt>
      <trkpt lat="43.60386" lon="1.57901">
        <ele>178</ele>
        <time>2013-05-27T16:15:50Z</time>
      </trkpt>
      <trkpt lat="43.60391" lon="1.57893">
        <ele>178</ele>
        <time>2013-05-27T16:15:51Z</time>
      </trkpt>
      <trkpt lat="43.60397" lon="1.57886">
        <ele>177</ele>
        <time>2013-05-27T16:15:52Z</time>
      </trkpt>
      <trkpt lat="43.60404" lon="1.57879">
        <ele>177</ele>
        <time>2013-05-27T16:15:53Z</time>
      </trkpt>
      <trkpt lat="43.60455" lon="1.5784">
        <ele>177</ele>
        <time>2013-05-27T16:15:59Z</time>
      </trkpt>
      <trkpt lat="43.60497" lon="1.57798">
        <ele>171</ele>
        <time>2013-05-27T16:16:04Z</time>
      </trkpt>
      <trkpt lat="43.60513" lon="1.5778">
        <ele>173</ele>
        <time>2013-05-27T16:16:06Z</time>
      </trkpt>
      <trkpt lat="43.60527" lon="1.5776">
        <ele>173</ele>
        <time>2013-05-27T16:16:08Z</time>
      </trkpt>
      <trkpt lat="43.60557" lon="1.57726">
        <ele>171</ele>
        <time>2013-05-27T16:16:12Z</time>
      </trkpt>
      <trkpt lat="43.60577" lon="1.57697">
        <ele>170</ele>
        <time>2013-05-27T16:16:16Z</time>
      </trkpt>
      <trkpt lat="43.60587" lon="1.57695">
        <ele>173</ele>
        <time>2013-05-27T16:16:18Z</time>
      </trkpt>
      <trkpt lat="43.60633" lon="1.57697">
        <ele>173</ele>
        <time>2013-05-27T16:16:30Z</time>
      </trkpt>
      <trkpt lat="43.60658" lon="1.57705">
        <ele>174</ele>
        <time>2013-05-27T16:16:38Z</time>
      </trkpt>
      <trkpt lat="43.60687" lon="1.57715">
        <ele>174</ele>
        <time>2013-05-27T16:16:46Z</time>
      </trkpt>
      <trkpt lat="43.60704" lon="1.57726">
        <ele>174</ele>
        <time>2013-05-27T16:16:51Z</time>
      </trkpt>
      <trkpt lat="43.60711" lon="1.57728">
        <ele>174</ele>
        <time>2013-05-27T16:16:53Z</time>
      </trkpt>
      <trkpt lat="43.6075" lon="1.57723">
        <ele>173</ele>
        <time>2013-05-27T16:17:01Z</time>
      </trkpt>
      <trkpt lat="43.60772" lon="1.5772">
        <ele>173</ele>
        <time>2013-05-27T16:17:05Z</time>
      </trkpt>
      <trkpt lat="43.60781" lon="1.57709">
        <ele>173</ele>
        <time>2013-05-27T16:17:08Z</time>
      </trkpt>
      <trkpt lat="43.60793" lon="1.57689">
        <ele>172</ele>
        <time>2013-05-27T16:17:12Z</time>
      </trkpt>
      <trkpt lat="43.60798" lon="1.57678">
        <ele>172</ele>
        <time>2013-05-27T16:17:14Z</time>
      </trkpt>
      <trkpt lat="43.60812" lon="1.5766">
        <ele>171</ele>
        <time>2013-05-27T16:17:18Z</time>
      </trkpt>
      <trkpt lat="43.60822" lon="1.57646">
        <ele>171</ele>
        <time>2013-05-27T16:17:21Z</time>
      </trkpt>
      <trkpt lat="43.60839" lon="1.57624">
        <ele>173</ele>
        <time>2013-05-27T16:17:26Z</time>
      </trkpt>
      <trkpt lat="43.60858" lon="1.57594">
        <ele>173</ele>
        <time>2013-05-27T16:17:33Z</time>
      </trkpt>
      <trkpt lat="43.60883" lon="1.57573">
        <ele>179</ele>
        <time>2013-05-27T16:17:41Z</time>
      </trkpt>
      <trkpt lat="43.609" lon="1.57561">
        <ele>179</ele>
        <time>2013-05-27T16:17:47Z</time>
      </trkpt>
      <trkpt lat="43.6091" lon="1.57553">
        <ele>180</ele>
        <time>2013-05-27T16:17:52Z</time>
      </trkpt>
      <trkpt lat="43.60919" lon="1.57533">
        <ele>189</ele>
        <time>2013-05-27T16:18:01Z</time>
      </trkpt>
      <trkpt lat="43.60925" lon="1.5752">
        <ele>189</ele>
        <time>2013-05-27T16:18:09Z</time>
      </trkpt>
      <trkpt lat="43.60926" lon="1.57504">
        <ele>189</ele>
        <time>2013-05-27T16:18:18Z</time>
      </trkpt>
      <trkpt lat="43.6093" lon="1.57484">
        <ele>194</ele>
        <time>2013-05-27T16:18:25Z</time>
      </trkpt>
      <trkpt lat="43.60933" lon="1.57467">
        <ele>197</ele>
        <time>2013-05-27T16:18:31Z</time>
      </trkpt>
      <trkpt lat="43.60939" lon="1.57449">
        <ele>199</ele>
        <time>2013-05-27T16:18:38Z</time>
      </trkpt>
      <trkpt lat="43.60946" lon="1.57429">
        <ele>200</ele>
        <time>2013-05-27T16:18:47Z</time>
      </trkpt>
      <trkpt lat="43.6095" lon="1.57415">
        <ele>204</ele>
        <time>2013-05-27T16:18:54Z</time>
      </trkpt>
      <trkpt lat="43.60956" lon="1.57401">
        <ele>205</ele>
        <time>2013-05-27T16:19:02Z</time>
      </trkpt>
      <trkpt lat="43.6096" lon="1.57388">
        <ele>205</ele>
        <time>2013-05-27T16:19:09Z</time>
      </trkpt>
      <trkpt lat="43.60963" lon="1.57373">
        <ele>206</ele>
        <time>2013-05-27T16:19:17Z</time>
      </trkpt>
      <trkpt lat="43.60967" lon="1.57359">
        <ele>206</ele>
        <time>2013-05-27T16:19:25Z</time>
      </trkpt>
      <trkpt lat="43.60971" lon="1.57341">
        <ele>206</ele>
        <time>2013-05-27T16:19:34Z</time>
      </trkpt>
      <trkpt lat="43.60977" lon="1.57328">
        <ele>209</ele>
        <time>2013-05-27T16:19:41Z</time>
      </trkpt>
      <trkpt lat="43.60985" lon="1.57314">
        <ele>209</ele>
        <time>2013-05-27T16:19:49Z</time>
      </trkpt>
      <trkpt lat="43.60992" lon="1.57302">
        <ele>210</ele>
        <time>2013-05-27T16:19:57Z</time>
      </trkpt>
      <trkpt lat="43.60999" lon="1.57289">
        <ele>210</ele>
        <time>2013-05-27T16:20:05Z</time>
      </trkpt>
      <trkpt lat="43.61004" lon="1.57279">
        <ele>211</ele>
        <time>2013-05-27T16:20:12Z</time>
      </trkpt>
      <trkpt lat="43.6101" lon="1.57268">
        <ele>211</ele>
        <time>2013-05-27T16:20:20Z</time>
      </trkpt>
      <trkpt lat="43.61015" lon="1.57257">
        <ele>212</ele>
        <time>2013-05-27T16:20:27Z</time>
      </trkpt>
      <trkpt lat="43.61024" lon="1.57244">
        <ele>213</ele>
        <time>2013-05-27T16:20:35Z</time>
      </trkpt>
      <trkpt lat="43.61033" lon="1.57231">
        <ele>214</ele>
        <time>2013-05-27T16:20:43Z</time>
      </trkpt>
      <trkpt lat="43.61046" lon="1.57225">
        <ele>214</ele>
        <time>2013-05-27T16:20:52Z</time>
      </trkpt>
      <trkpt lat="43.61056" lon="1.57227">
        <ele>214</ele>
        <time>2013-05-27T16:20:59Z</time>
      </trkpt>
      <trkpt lat="43.61056" lon="1.57227">
        <ele>214</ele>
        <time>2013-05-27T16:21:01Z</time>
      </trkpt>
      <trkpt lat="43.61109" lon="1.57252">
        <ele>217</ele>
        <time>2013-05-27T16:22:03Z</time>
      </trkpt>
      <trkpt lat="43.61129" lon="1.57265">
        <ele>219</ele>
        <time>2013-05-27T16:22:14Z</time>
      </trkpt>
      <trkpt lat="43.61145" lon="1.57278">
        <ele>219</ele>
        <time>2013-05-27T16:22:21Z</time>
      </trkpt>
      <trkpt lat="43.61161" lon="1.57292">
        <ele>220</ele>
        <time>2013-05-27T16:22:30Z</time>
      </trkpt>
      <trkpt lat="43.61182" lon="1.5731">
        <ele>222</ele>
        <time>2013-05-27T16:22:38Z</time>
      </trkpt>
      <trkpt lat="43.61215" lon="1.57337">
        <ele>223</ele>
        <time>2013-05-27T16:22:47Z</time>
      </trkpt>
      <trkpt lat="43.61262" lon="1.57375">
        <ele>222</ele>
        <time>2013-05-27T16:22:58Z</time>
      </trkpt>
      <trkpt lat="43.61266" lon="1.57378">
        <ele>222</ele>
        <time>2013-05-27T16:22:59Z</time>
      </trkpt>
      <trkpt lat="43.6127" lon="1.57381">
        <ele>222</ele>
        <time>2013-05-27T16:23:00Z</time>
      </trkpt>
      <trkpt lat="43.61294" lon="1.57398">
        <ele>222</ele>
        <time>2013-05-27T16:23:07Z</time>
      </trkpt>
      <trkpt lat="43.61295" lon="1.574">
        <ele>222</ele>
        <time>2013-05-27T16:23:08Z</time>
      </trkpt>
      <trkpt lat="43.61296" lon="1.57401">
        <ele>222</ele>
        <time>2013-05-27T16:23:09Z</time>
      </trkpt>
      <trkpt lat="43.61317" lon="1.57414">
        <ele>221</ele>
        <time>2013-05-27T16:23:14Z</time>
      </trkpt>
      <trkpt lat="43.61339" lon="1.57435">
        <ele>219</ele>
        <time>2013-05-27T16:23:19Z</time>
      </trkpt>
      <trkpt lat="43.61344" lon="1.5744">
        <ele>219</ele>
        <time>2013-05-27T16:23:20Z</time>
      </trkpt>
      <trkpt lat="43.61354" lon="1.57447">
        <ele>218</ele>
        <time>2013-05-27T16:23:23Z</time>
      </trkpt>
      <trkpt lat="43.61354" lon="1.57449">
        <ele>218</ele>
        <time>2013-05-27T16:23:24Z</time>
      </trkpt>
      <trkpt lat="43.61354" lon="1.57451">
        <ele>218</ele>
        <time>2013-05-27T16:23:25Z</time>
      </trkpt>
      <trkpt lat="43.61356" lon="1.57453">
        <ele>218</ele>
        <time>2013-05-27T16:23:26Z</time>
      </trkpt>
      <trkpt lat="43.61393" lon="1.57472">
        <ele>217</ele>
        <time>2013-05-27T16:23:34Z</time>
      </trkpt>
      <trkpt lat="43.61402" lon="1.57473">
        <ele>217</ele>
        <time>2013-05-27T16:23:36Z</time>
      </trkpt>
      <trkpt lat="43.61406" lon="1.57471">
        <ele>217</ele>
        <time>2013-05-27T16:23:37Z</time>
      </trkpt>
      <trkpt lat="43.61408" lon="1.57467">
        <ele>217</ele>
        <time>2013-05-27T16:23:38Z</time>
      </trkpt>
      <trkpt lat="43.61425" lon="1.57424">
        <ele>215</ele>
        <time>2013-05-27T16:23:44Z</time>
      </trkpt>
      <trkpt lat="43.61448" lon="1.57369">
        <ele>213</ele>
        <time>2013-05-27T16:23:50Z</time>
      </trkpt>
      <trkpt lat="43.61478" lon="1.57349">
        <ele>212</ele>
        <time>2013-05-27T16:23:54Z</time>
      </trkpt>
      <trkpt lat="43.61486" lon="1.57346">
        <ele>212</ele>
        <time>2013-05-27T16:23:55Z</time>
      </trkpt>
      <trkpt lat="43.61505" lon="1.57315">
        <ele>211</ele>
        <time>2013-05-27T16:23:59Z</time>
      </trkpt>
      <trkpt lat="43.61509" lon="1.57285">
        <ele>211</ele>
        <time>2013-05-27T16:24:02Z</time>
      </trkpt>
      <trkpt lat="43.61523" lon="1.57251">
        <ele>210</ele>
        <time>2013-05-27T16:24:06Z</time>
      </trkpt>
      <trkpt lat="43.61546" lon="1.57242">
        <ele>211</ele>
        <time>2013-05-27T16:24:10Z</time>
      </trkpt>
      <trkpt lat="43.61565" lon="1.57248">
        <ele>213</ele>
        <time>2013-05-27T16:24:14Z</time>
      </trkpt>
      <trkpt lat="43.61586" lon="1.57255">
        <ele>216</ele>
        <time>2013-05-27T16:24:21Z</time>
      </trkpt>
      <trkpt lat="43.61588" lon="1.57256">
        <ele>216</ele>
        <time>2013-05-27T16:24:22Z</time>
      </trkpt>
      <trkpt lat="43.61603" lon="1.57273">
        <ele>219</ele>
        <time>2013-05-27T16:24:32Z</time>
      </trkpt>
      <trkpt lat="43.61615" lon="1.57286">
        <ele>220</ele>
        <time>2013-05-27T16:24:40Z</time>
      </trkpt>
      <trkpt lat="43.6163" lon="1.57298">
        <ele>220</ele>
        <time>2013-05-27T16:24:49Z</time>
      </trkpt>
      <trkpt lat="43.61645" lon="1.5731">
        <ele>221</ele>
        <time>2013-05-27T16:24:58Z</time>
      </trkpt>
      <trkpt lat="43.61658" lon="1.57323">
        <ele>223</ele>
        <time>2013-05-27T16:25:05Z</time>
      </trkpt>
      <trkpt lat="43.61673" lon="1.57333">
        <ele>225</ele>
        <time>2013-05-27T16:25:13Z</time>
      </trkpt>
      <trkpt lat="43.61681" lon="1.57327">
        <ele>225</ele>
        <time>2013-05-27T16:25:19Z</time>
      </trkpt>
      <trkpt lat="43.61688" lon="1.57318">
        <ele>226</ele>
        <time>2013-05-27T16:25:25Z</time>
      </trkpt>
      <trkpt lat="43.61695" lon="1.57312">
        <ele>226</ele>
        <time>2013-05-27T16:25:31Z</time>
      </trkpt>
      <trkpt lat="43.61699" lon="1.57305">
        <ele>226</ele>
        <time>2013-05-27T16:25:35Z</time>
      </trkpt>
      <trkpt lat="43.6171" lon="1.57293">
        <ele>227</ele>
        <time>2013-05-27T16:25:44Z</time>
      </trkpt>
      <trkpt lat="43.61719" lon="1.57282">
        <ele>227</ele>
        <time>2013-05-27T16:25:51Z</time>
      </trkpt>
      <trkpt lat="43.61736" lon="1.57268">
        <ele>228</ele>
        <time>2013-05-27T16:25:58Z</time>
      </trkpt>
      <trkpt lat="43.61764" lon="1.57248">
        <ele>230</ele>
        <time>2013-05-27T16:26:06Z</time>
      </trkpt>
      <trkpt lat="43.61791" lon="1.5723">
        <ele>230</ele>
        <time>2013-05-27T16:26:12Z</time>
      </trkpt>
      <trkpt lat="43.61815" lon="1.57218">
        <ele>230</ele>
        <time>2013-05-27T16:26:18Z</time>
      </trkpt>
      <trkpt lat="43.61829" lon="1.57216">
        <ele>230</ele>
        <time>2013-05-27T16:26:22Z</time>
      </trkpt>
      <trkpt lat="43.61833" lon="1.57215">
        <ele>230</ele>
        <time>2013-05-27T16:26:23Z</time>
      </trkpt>
      <trkpt lat="43.6185" lon="1.57206">
        <ele>229</ele>
        <time>2013-05-27T16:26:27Z</time>
      </trkpt>
      <trkpt lat="43.61875" lon="1.57194">
        <ele>229</ele>
        <time>2013-05-27T16:26:33Z</time>
      </trkpt>
      <trkpt lat="43.61898" lon="1.57182">
        <ele>229</ele>
        <time>2013-05-27T16:26:40Z</time>
      </trkpt>
      <trkpt lat="43.61903" lon="1.57176">
        <ele>229</ele>
        <time>2013-05-27T16:26:48Z</time>
      </trkpt>
      <trkpt lat="43.61903" lon="1.57176">
        <ele>229</ele>
        <time>2013-05-27T16:26:49Z</time>
      </trkpt>
      <trkpt lat="43.61914" lon="1.57167">
        <ele>229</ele>
        <time>2013-05-27T16:26:55Z</time>
      </trkpt>
      <trkpt lat="43.61926" lon="1.57154">
        <ele>228</ele>
        <time>2013-05-27T16:27:01Z</time>
      </trkpt>
      <trkpt lat="43.61937" lon="1.57141">
        <ele>228</ele>
        <time>2013-05-27T16:27:05Z</time>
      </trkpt>
      <trkpt lat="43.61958" lon="1.57134">
        <ele>228</ele>
        <time>2013-05-27T16:27:10Z</time>
      </trkpt>
      <trkpt lat="43.61983" lon="1.57115">
        <ele>227</ele>
        <time>2013-05-27T16:27:16Z</time>
      </trkpt>
      <trkpt lat="43.61996" lon="1.57101">
        <ele>227</ele>
        <time>2013-05-27T16:27:19Z</time>
      </trkpt>
      <trkpt lat="43.62014" lon="1.57062">
        <ele>226</ele>
        <time>2013-05-27T16:27:25Z</time>
      </trkpt>
      <trkpt lat="43.62018" lon="1.57048">
        <ele>226</ele>
        <time>2013-05-27T16:27:27Z</time>
      </trkpt>
      <trkpt lat="43.62028" lon="1.57007">
        <ele>226</ele>
        <time>2013-05-27T16:27:33Z</time>
      </trkpt>
      <trkpt lat="43.6203" lon="1.56995">
        <ele>225</ele>
        <time>2013-05-27T16:27:35Z</time>
      </trkpt>
      <trkpt lat="43.6204" lon="1.56962">
        <ele>225</ele>
        <time>2013-05-27T16:27:40Z</time>
      </trkpt>
      <trkpt lat="43.62041" lon="1.56954">
        <ele>225</ele>
        <time>2013-05-27T16:27:41Z</time>
      </trkpt>
      <trkpt lat="43.62051" lon="1.56894">
        <ele>224</ele>
        <time>2013-05-27T16:27:49Z</time>
      </trkpt>
      <trkpt lat="43.62053" lon="1.56879">
        <ele>224</ele>
        <time>2013-05-27T16:27:51Z</time>
      </trkpt>
      <trkpt lat="43.62057" lon="1.56855">
        <ele>223</ele>
        <time>2013-05-27T16:27:54Z</time>
      </trkpt>
      <trkpt lat="43.62064" lon="1.56823">
        <ele>223</ele>
        <time>2013-05-27T16:27:58Z</time>
      </trkpt>
      <trkpt lat="43.62069" lon="1.56784">
        <ele>222</ele>
        <time>2013-05-27T16:28:03Z</time>
      </trkpt>
      <trkpt lat="43.6207" lon="1.56777">
        <ele>222</ele>
        <time>2013-05-27T16:28:04Z</time>
      </trkpt>
      <trkpt lat="43.62074" lon="1.56761">
        <ele>222</ele>
        <time>2013-05-27T16:28:06Z</time>
      </trkpt>
      <trkpt lat="43.62087" lon="1.56705">
        <ele>222</ele>
        <time>2013-05-27T16:28:13Z</time>
      </trkpt>
      <trkpt lat="43.62089" lon="1.56689">
        <ele>222</ele>
        <time>2013-05-27T16:28:15Z</time>
      </trkpt>
      <trkpt lat="43.62102" lon="1.56642">
        <ele>224</ele>
        <time>2013-05-27T16:28:21Z</time>
      </trkpt>
      <trkpt lat="43.62107" lon="1.56617">
        <ele>224</ele>
        <time>2013-05-27T16:28:25Z</time>
      </trkpt>
      <trkpt lat="43.62109" lon="1.56612">
        <ele>224</ele>
        <time>2013-05-27T16:28:26Z</time>
      </trkpt>
      <trkpt lat="43.62103" lon="1.5659">
        <ele>225</ele>
        <time>2013-05-27T16:28:31Z</time>
      </trkpt>
      <trkpt lat="43.62096" lon="1.56587">
        <ele>226</ele>
        <time>2013-05-27T16:28:34Z</time>
      </trkpt>
      <trkpt lat="43.62073" lon="1.56577">
        <ele>226</ele>
        <time>2013-05-27T16:28:42Z</time>
      </trkpt>
      <trkpt lat="43.62047" lon="1.5657">
        <ele>225</ele>
        <time>2013-05-27T16:28:49Z</time>
      </trkpt>
      <trkpt lat="43.62043" lon="1.5657">
        <ele>224</ele>
        <time>2013-05-27T16:28:50Z</time>
      </trkpt>
      <trkpt lat="43.62029" lon="1.5657">
        <ele>224</ele>
        <time>2013-05-27T16:28:54Z</time>
      </trkpt>
      <trkpt lat="43.62027" lon="1.56567">
        <ele>224</ele>
        <time>2013-05-27T16:28:55Z</time>
      </trkpt>
      <trkpt lat="43.62018" lon="1.56556">
        <ele>223</ele>
        <time>2013-05-27T16:28:58Z</time>
      </trkpt>
      <trkpt lat="43.62015" lon="1.56552">
        <ele>224</ele>
        <time>2013-05-27T16:28:59Z</time>
      </trkpt>
      <trkpt lat="43.62014" lon="1.5655">
        <ele>224</ele>
        <time>2013-05-27T16:29:00Z</time>
      </trkpt>
      <trkpt lat="43.62011" lon="1.56545">
        <ele>224</ele>
        <time>2013-05-27T16:29:06Z</time>
      </trkpt>
      <trkpt lat="43.6201" lon="1.56542">
        <ele>224</ele>
        <time>2013-05-27T16:29:09Z</time>
      </trkpt>
      <trkpt lat="43.62009" lon="1.56541">
        <ele>224</ele>
        <time>2013-05-27T16:29:12Z</time>
      </trkpt>
      <trkpt lat="43.62008" lon="1.56541">
        <ele>224</ele>
        <time>2013-05-27T16:29:13Z</time>
      </trkpt>
      <trkpt lat="43.62007" lon="1.56541">
        <ele>224</ele>
        <time>2013-05-27T16:29:14Z</time>
      </trkpt>
      <trkpt lat="43.62005" lon="1.5654">
        <ele>224</ele>
        <time>2013-05-27T16:29:15Z</time>
      </trkpt>
      <trkpt lat="43.62002" lon="1.5654">
        <ele>224</ele>
        <time>2013-05-27T16:29:16Z</time>
      </trkpt>
      <trkpt lat="43.61997" lon="1.56539">
        <ele>218</ele>
        <time>2013-05-27T16:29:18Z</time>
      </trkpt>
      <trkpt lat="43.61997" lon="1.56531">
        <ele>218</ele>
        <time>2013-05-27T16:29:21Z</time>
      </trkpt>
      <trkpt lat="43.61998" lon="1.56505">
        <ele>222</ele>
        <time>2013-05-27T16:29:29Z</time>
      </trkpt>
      <trkpt lat="43.61998" lon="1.56501">
        <ele>222</ele>
        <time>2013-05-27T16:29:30Z</time>
      </trkpt>
      <trkpt lat="43.61997" lon="1.56473">
        <ele>220</ele>
        <time>2013-05-27T16:29:37Z</time>
      </trkpt>
      <trkpt lat="43.61999" lon="1.56449">
        <ele>220</ele>
        <time>2013-05-27T16:29:43Z</time>
      </trkpt>
      <trkpt lat="43.62002" lon="1.56423">
        <ele>223</ele>
        <time>2013-05-27T16:29:49Z</time>
      </trkpt>
      <trkpt lat="43.62005" lon="1.56399">
        <ele>224</ele>
        <time>2013-05-27T16:29:55Z</time>
      </trkpt>
      <trkpt lat="43.62005" lon="1.56388">
        <ele>225</ele>
        <time>2013-05-27T16:29:58Z</time>
      </trkpt>
      <trkpt lat="43.62009" lon="1.56374">
        <ele>225</ele>
        <time>2013-05-27T16:30:03Z</time>
      </trkpt>
      <trkpt lat="43.6201" lon="1.56357">
        <ele>225</ele>
        <time>2013-05-27T16:30:10Z</time>
      </trkpt>
      <trkpt lat="43.62018" lon="1.56338">
        <ele>225</ele>
        <time>2013-05-27T16:30:17Z</time>
      </trkpt>
      <trkpt lat="43.62021" lon="1.56328">
        <ele>225</ele>
        <time>2013-05-27T16:30:21Z</time>
      </trkpt>
      <trkpt lat="43.62027" lon="1.56308">
        <ele>225</ele>
        <time>2013-05-27T16:30:27Z</time>
      </trkpt>
      <trkpt lat="43.62031" lon="1.563">
        <ele>225</ele>
        <time>2013-05-27T16:30:29Z</time>
      </trkpt>
      <trkpt lat="43.62042" lon="1.56269">
        <ele>225</ele>
        <time>2013-05-27T16:30:37Z</time>
      </trkpt>
      <trkpt lat="43.62047" lon="1.56247">
        <ele>223</ele>
        <time>2013-05-27T16:30:43Z</time>
      </trkpt>
      <trkpt lat="43.62049" lon="1.56239">
        <ele>223</ele>
        <time>2013-05-27T16:30:49Z</time>
      </trkpt>
      <trkpt lat="43.62052" lon="1.56229">
        <ele>223</ele>
        <time>2013-05-27T16:30:55Z</time>
      </trkpt>
      <trkpt lat="43.62054" lon="1.56219">
        <ele>223</ele>
        <time>2013-05-27T16:31:03Z</time>
      </trkpt>
      <trkpt lat="43.62055" lon="1.56209">
        <ele>222</ele>
        <time>2013-05-27T16:31:10Z</time>
      </trkpt>
      <trkpt lat="43.62058" lon="1.56204">
        <ele>223</ele>
        <time>2013-05-27T16:31:15Z</time>
      </trkpt>
      <trkpt lat="43.62058" lon="1.56201">
        <ele>222</ele>
        <time>2013-05-27T16:31:21Z</time>
      </trkpt>
      <trkpt lat="43.62064" lon="1.56189">
        <ele>223</ele>
        <time>2013-05-27T16:31:27Z</time>
      </trkpt>
      <trkpt lat="43.62065" lon="1.56179">
        <ele>223</ele>
        <time>2013-05-27T16:31:32Z</time>
      </trkpt>
      <trkpt lat="43.62069" lon="1.56165">
        <ele>222</ele>
        <time>2013-05-27T16:31:38Z</time>
      </trkpt>
      <trkpt lat="43.62072" lon="1.56152">
        <ele>221</ele>
        <time>2013-05-27T16:31:43Z</time>
      </trkpt>
      <trkpt lat="43.62073" lon="1.56149">
        <ele>221</ele>
        <time>2013-05-27T16:31:44Z</time>
      </trkpt>
      <trkpt lat="43.62079" lon="1.56135">
        <ele>220</ele>
        <time>2013-05-27T16:31:50Z</time>
      </trkpt>
      <trkpt lat="43.62092" lon="1.56131">
        <ele>224</ele>
        <time>2013-05-27T16:31:57Z</time>
      </trkpt>
      <trkpt lat="43.62099" lon="1.56131">
        <ele>224</ele>
        <time>2013-05-27T16:32:02Z</time>
      </trkpt>
      <trkpt lat="43.62102" lon="1.56126">
        <ele>224</ele>
        <time>2013-05-27T16:32:04Z</time>
      </trkpt>
      <trkpt lat="43.62109" lon="1.56107">
        <ele>223</ele>
        <time>2013-05-27T16:32:12Z</time>
      </trkpt>
      <trkpt lat="43.62108" lon="1.56094">
        <ele>223</ele>
        <time>2013-05-27T16:32:19Z</time>
      </trkpt>
      <trkpt lat="43.62114" lon="1.56082">
        <ele>223</ele>
        <time>2013-05-27T16:32:26Z</time>
      </trkpt>
      <trkpt lat="43.62118" lon="1.56069">
        <ele>223</ele>
        <time>2013-05-27T16:32:33Z</time>
      </trkpt>
      <trkpt lat="43.62123" lon="1.56056">
        <ele>223</ele>
        <time>2013-05-27T16:32:37Z</time>
      </trkpt>
      <trkpt lat="43.62131" lon="1.56035">
        <ele>223</ele>
        <time>2013-05-27T16:32:46Z</time>
      </trkpt>
      <trkpt lat="43.62132" lon="1.56026">
        <ele>223</ele>
        <time>2013-05-27T16:32:51Z</time>
      </trkpt>
      <trkpt lat="43.62136" lon="1.56011">
        <ele>224</ele>
        <time>2013-05-27T16:32:56Z</time>
      </trkpt>
      <trkpt lat="43.62138" lon="1.56003">
        <ele>224</ele>
        <time>2013-05-27T16:33:02Z</time>
      </trkpt>
      <trkpt lat="43.62138" lon="1.56">
        <ele>222</ele>
        <time>2013-05-27T16:33:10Z</time>
      </trkpt>
      <trkpt lat="43.62139" lon="1.55994">
        <ele>222</ele>
        <time>2013-05-27T16:33:17Z</time>
      </trkpt>
      <trkpt lat="43.62142" lon="1.55982">
        <ele>222</ele>
        <time>2013-05-27T16:33:23Z</time>
      </trkpt>
      <trkpt lat="43.62148" lon="1.55969">
        <ele>222</ele>
        <time>2013-05-27T16:33:30Z</time>
      </trkpt>
      <trkpt lat="43.62149" lon="1.5596">
        <ele>222</ele>
        <time>2013-05-27T16:33:37Z</time>
      </trkpt>
      <trkpt lat="43.62151" lon="1.5595">
        <ele>222</ele>
        <time>2013-05-27T16:33:43Z</time>
      </trkpt>
      <trkpt lat="43.62152" lon="1.55941">
        <ele>222</ele>
        <time>2013-05-27T16:33:49Z</time>
      </trkpt>
      <trkpt lat="43.62151" lon="1.55941">
        <ele>222</ele>
        <time>2013-05-27T16:33:57Z</time>
      </trkpt>
      <trkpt lat="43.62152" lon="1.55941">
        <ele>222</ele>
        <time>2013-05-27T16:34:08Z</time>
      </trkpt>
      <trkpt lat="43.62151" lon="1.5594">
        <ele>222</ele>
        <time>2013-05-27T16:34:14Z</time>
      </trkpt>
      <trkpt lat="43.62145" lon="1.55932">
        <ele>221</ele>
        <time>2013-05-27T16:34:21Z</time>
      </trkpt>
      <trkpt lat="43.6213" lon="1.55921">
        <ele>220</ele>
        <time>2013-05-27T16:34:27Z</time>
      </trkpt>
      <trkpt lat="43.62114" lon="1.55909">
        <ele>214</ele>
        <time>2013-05-27T16:34:34Z</time>
      </trkpt>
      <trkpt lat="43.62096" lon="1.55895">
        <ele>213</ele>
        <time>2013-05-27T16:34:40Z</time>
      </trkpt>
      <trkpt lat="43.62093" lon="1.55889">
        <ele>213</ele>
        <time>2013-05-27T16:34:42Z</time>
      </trkpt>
      <trkpt lat="43.6208" lon="1.55865">
        <ele>205</ele>
        <time>2013-05-27T16:34:47Z</time>
      </trkpt>
      <trkpt lat="43.62063" lon="1.55836">
        <ele>204</ele>
        <time>2013-05-27T16:34:54Z</time>
      </trkpt>
      <trkpt lat="43.6205" lon="1.55816">
        <ele>201</ele>
        <time>2013-05-27T16:34:59Z</time>
      </trkpt>
      <trkpt lat="43.62036" lon="1.55794">
        <ele>200</ele>
        <time>2013-05-27T16:35:05Z</time>
      </trkpt>
      <trkpt lat="43.62028" lon="1.55784">
        <ele>199</ele>
        <time>2013-05-27T16:35:07Z</time>
      </trkpt>
      <trkpt lat="43.62005" lon="1.55762">
        <ele>197</ele>
        <time>2013-05-27T16:35:13Z</time>
      </trkpt>
      <trkpt lat="43.62001" lon="1.5576">
        <ele>197</ele>
        <time>2013-05-27T16:35:14Z</time>
      </trkpt>
      <trkpt lat="43.6199" lon="1.55759">
        <ele>193</ele>
        <time>2013-05-27T16:35:17Z</time>
      </trkpt>
      <trkpt lat="43.61963" lon="1.55748">
        <ele>190</ele>
        <time>2013-05-27T16:35:24Z</time>
      </trkpt>
      <trkpt lat="43.61945" lon="1.55741">
        <ele>188</ele>
        <time>2013-05-27T16:35:30Z</time>
      </trkpt>
      <trkpt lat="43.61935" lon="1.55736">
        <ele>187</ele>
        <time>2013-05-27T16:35:34Z</time>
      </trkpt>
      <trkpt lat="43.61924" lon="1.55733">
        <ele>186</ele>
        <time>2013-05-27T16:35:40Z</time>
      </trkpt>
      <trkpt lat="43.61922" lon="1.55733">
        <ele>186</ele>
        <time>2013-05-27T16:35:45Z</time>
      </trkpt>
      <trkpt lat="43.61922" lon="1.55733">
        <ele>186</ele>
        <time>2013-05-27T16:35:50Z</time>
      </trkpt>
      <trkpt lat="43.61912" lon="1.55728">
        <ele>181</ele>
        <time>2013-05-27T16:35:55Z</time>
      </trkpt>
      <trkpt lat="43.61902" lon="1.55724">
        <ele>181</ele>
        <time>2013-05-27T16:35:59Z</time>
      </trkpt>
      <trkpt lat="43.61898" lon="1.55719">
        <ele>180</ele>
        <time>2013-05-27T16:36:02Z</time>
      </trkpt>
      <trkpt lat="43.61891" lon="1.55715">
        <ele>180</ele>
        <time>2013-05-27T16:36:06Z</time>
      </trkpt>
      <trkpt lat="43.61886" lon="1.55708">
        <ele>180</ele>
        <time>2013-05-27T16:36:10Z</time>
      </trkpt>
      <trkpt lat="43.61874" lon="1.55693">
        <ele>179</ele>
        <time>2013-05-27T16:36:17Z</time>
      </trkpt>
      <trkpt lat="43.61873" lon="1.5569">
        <ele>179</ele>
        <time>2013-05-27T16:36:18Z</time>
      </trkpt>
      <trkpt lat="43.61855" lon="1.55671">
        <ele>178</ele>
        <time>2013-05-27T16:36:26Z</time>
      </trkpt>
      <trkpt lat="43.61844" lon="1.5566">
        <ele>177</ele>
        <time>2013-05-27T16:36:31Z</time>
      </trkpt>
      <trkpt lat="43.61839" lon="1.55655">
        <ele>177</ele>
        <time>2013-05-27T16:36:40Z</time>
      </trkpt>
      <trkpt lat="43.61837" lon="1.55655">
        <ele>176</ele>
        <time>2013-05-27T16:36:55Z</time>
      </trkpt>
      <trkpt lat="43.61836" lon="1.55655">
        <ele>176</ele>
        <time>2013-05-27T16:37:07Z</time>
      </trkpt>
      <trkpt lat="43.61836" lon="1.55655">
        <ele>176</ele>
        <time>2013-05-27T16:37:17Z</time>
      </trkpt>
      <trkpt lat="43.61835" lon="1.55655">
        <ele>176</ele>
        <time>2013-05-27T16:37:33Z</time>
      </trkpt>
      <trkpt lat="43.61835" lon="1.55655">
        <ele>176</ele>
        <time>2013-05-27T16:37:35Z</time>
      </trkpt>
      <trkpt lat="43.6183" lon="1.55647">
        <ele>177</ele>
        <time>2013-05-27T16:37:40Z</time>
      </trkpt>
      <trkpt lat="43.61818" lon="1.55628">
        <ele>177</ele>
        <time>2013-05-27T16:37:48Z</time>
      </trkpt>
      <trkpt lat="43.61808" lon="1.55613">
        <ele>178</ele>
        <time>2013-05-27T16:37:56Z</time>
      </trkpt>
      <trkpt lat="43.618" lon="1.55606">
        <ele>178</ele>
        <time>2013-05-27T16:38:02Z</time>
      </trkpt>
      <trkpt lat="43.61795" lon="1.55602">
        <ele>178</ele>
        <time>2013-05-27T16:38:06Z</time>
      </trkpt>
      <trkpt lat="43.61783" lon="1.55592">
        <ele>178</ele>
        <time>2013-05-27T16:38:14Z</time>
      </trkpt>
      <trkpt lat="43.61773" lon="1.55586">
        <ele>179</ele>
        <time>2013-05-27T16:38:20Z</time>
      </trkpt>
      <trkpt lat="43.61764" lon="1.55577">
        <ele>179</ele>
        <time>2013-05-27T16:38:27Z</time>
      </trkpt>
      <trkpt lat="43.61751" lon="1.55567">
        <ele>179</ele>
        <time>2013-05-27T16:38:36Z</time>
      </trkpt>
      <trkpt lat="43.6174" lon="1.55558">
        <ele>183</ele>
        <time>2013-05-27T16:38:44Z</time>
      </trkpt>
      <trkpt lat="43.61731" lon="1.5555">
        <ele>184</ele>
        <time>2013-05-27T16:38:51Z</time>
      </trkpt>
      <trkpt lat="43.61722" lon="1.5554">
        <ele>184</ele>
        <time>2013-05-27T16:38:59Z</time>
      </trkpt>
      <trkpt lat="43.6171" lon="1.5553">
        <ele>185</ele>
        <time>2013-05-27T16:39:08Z</time>
      </trkpt>
      <trkpt lat="43.61702" lon="1.55524">
        <ele>185</ele>
        <time>2013-05-27T16:39:15Z</time>
      </trkpt>
      <trkpt lat="43.61702" lon="1.55525">
        <ele>185</ele>
        <time>2013-05-27T16:39:23Z</time>
      </trkpt>
      <trkpt lat="43.61701" lon="1.55523">
        <ele>185</ele>
        <time>2013-05-27T16:39:31Z</time>
      </trkpt>
      <trkpt lat="43.6169" lon="1.55513">
        <ele>186</ele>
        <time>2013-05-27T16:39:39Z</time>
      </trkpt>
      <trkpt lat="43.61677" lon="1.55498">
        <ele>186</ele>
        <time>2013-05-27T16:39:47Z</time>
      </trkpt>
      <trkpt lat="43.61658" lon="1.55478">
        <ele>186</ele>
        <time>2013-05-27T16:39:55Z</time>
      </trkpt>
      <trkpt lat="43.61645" lon="1.55466">
        <ele>186</ele>
        <time>2013-05-27T16:39:59Z</time>
      </trkpt>
      <trkpt lat="43.61624" lon="1.55437">
        <ele>185</ele>
        <time>2013-05-27T16:40:05Z</time>
      </trkpt>
      <trkpt lat="43.61622" lon="1.55434">
        <ele>185</ele>
        <time>2013-05-27T16:40:06Z</time>
      </trkpt>
      <trkpt lat="43.61613" lon="1.55427">
        <ele>186</ele>
        <time>2013-05-27T16:40:11Z</time>
      </trkpt>
      <trkpt lat="43.61601" lon="1.55416">
        <ele>185</ele>
        <time>2013-05-27T16:40:17Z</time>
      </trkpt>
      <trkpt lat="43.616" lon="1.55415">
        <ele>185</ele>
        <time>2013-05-27T16:40:18Z</time>
      </trkpt>
      <trkpt lat="43.6158" lon="1.55408">
        <ele>188</ele>
        <time>2013-05-27T16:40:27Z</time>
      </trkpt>
      <trkpt lat="43.61564" lon="1.554">
        <ele>190</ele>
        <time>2013-05-27T16:40:35Z</time>
      </trkpt>
      <trkpt lat="43.61546" lon="1.55393">
        <ele>191</ele>
        <time>2013-05-27T16:40:45Z</time>
      </trkpt>
      <trkpt lat="43.61532" lon="1.55387">
        <ele>192</ele>
        <time>2013-05-27T16:40:53Z</time>
      </trkpt>
      <trkpt lat="43.61522" lon="1.55382">
        <ele>193</ele>
        <time>2013-05-27T16:40:59Z</time>
      </trkpt>
      <trkpt lat="43.61522" lon="1.55371">
        <ele>193</ele>
        <time>2013-05-27T16:41:04Z</time>
      </trkpt>
      <trkpt lat="43.61525" lon="1.55368">
        <ele>193</ele>
        <time>2013-05-27T16:41:05Z</time>
      </trkpt>
      <trkpt lat="43.61552" lon="1.55345">
        <ele>191</ele>
        <time>2013-05-27T16:41:12Z</time>
      </trkpt>
      <trkpt lat="43.61556" lon="1.55339">
        <ele>191</ele>
        <time>2013-05-27T16:41:13Z</time>
      </trkpt>
      <trkpt lat="43.61561" lon="1.55333">
        <ele>190</ele>
        <time>2013-05-27T16:41:14Z</time>
      </trkpt>
      <trkpt lat="43.6157" lon="1.55313">
        <ele>191</ele>
        <time>2013-05-27T16:41:17Z</time>
      </trkpt>
      <trkpt lat="43.61591" lon="1.55252">
        <ele>188</ele>
        <time>2013-05-27T16:41:25Z</time>
      </trkpt>
      <trkpt lat="43.61609" lon="1.55193">
        <ele>186</ele>
        <time>2013-05-27T16:41:32Z</time>
      </trkpt>
      <trkpt lat="43.61614" lon="1.55176">
        <ele>186</ele>
        <time>2013-05-27T16:41:34Z</time>
      </trkpt>
      <trkpt lat="43.61635" lon="1.5512">
        <ele>185</ele>
        <time>2013-05-27T16:41:41Z</time>
      </trkpt>
      <trkpt lat="43.61656" lon="1.55064">
        <ele>183</ele>
        <time>2013-05-27T16:41:48Z</time>
      </trkpt>
      <trkpt lat="43.61676" lon="1.55012">
        <ele>178</ele>
        <time>2013-05-27T16:41:54Z</time>
      </trkpt>
      <trkpt lat="43.61691" lon="1.54978">
        <ele>177</ele>
        <time>2013-05-27T16:41:58Z</time>
      </trkpt>
      <trkpt lat="43.61704" lon="1.54943">
        <ele>176</ele>
        <time>2013-05-27T16:42:02Z</time>
      </trkpt>
      <trkpt lat="43.61716" lon="1.54914">
        <ele>174</ele>
        <time>2013-05-27T16:42:07Z</time>
      </trkpt>
      <trkpt lat="43.61739" lon="1.54855">
        <ele>173</ele>
        <time>2013-05-27T16:42:16Z</time>
      </trkpt>
      <trkpt lat="43.61745" lon="1.54834">
        <ele>172</ele>
        <time>2013-05-27T16:42:19Z</time>
      </trkpt>
      <trkpt lat="43.61753" lon="1.54814">
        <ele>169</ele>
        <time>2013-05-27T16:42:22Z</time>
      </trkpt>
      <trkpt lat="43.61758" lon="1.54782">
        <ele>168</ele>
        <time>2013-05-27T16:42:27Z</time>
      </trkpt>
      <trkpt lat="43.61757" lon="1.54768">
        <ele>168</ele>
        <time>2013-05-27T16:42:29Z</time>
      </trkpt>
      <trkpt lat="43.61756" lon="1.54736">
        <ele>166</ele>
        <time>2013-05-27T16:42:33Z</time>
      </trkpt>
      <trkpt lat="43.61754" lon="1.54719">
        <ele>166</ele>
        <time>2013-05-27T16:42:35Z</time>
      </trkpt>
      <trkpt lat="43.61755" lon="1.54665">
        <ele>164</ele>
        <time>2013-05-27T16:42:42Z</time>
      </trkpt>
      <trkpt lat="43.61755" lon="1.54653">
        <ele>164</ele>
        <time>2013-05-27T16:42:47Z</time>
      </trkpt>
      <trkpt lat="43.61755" lon="1.54651">
        <ele>163</ele>
        <time>2013-05-27T16:42:48Z</time>
      </trkpt>
      <trkpt lat="43.61757" lon="1.54647">
        <ele>163</ele>
        <time>2013-05-27T16:42:54Z</time>
      </trkpt>
      <trkpt lat="43.6176" lon="1.5463">
        <ele>162</ele>
        <time>2013-05-27T16:43:01Z</time>
      </trkpt>
      <trkpt lat="43.6176" lon="1.54618">
        <ele>162</ele>
        <time>2013-05-27T16:43:05Z</time>
      </trkpt>
      <trkpt lat="43.61759" lon="1.54614">
        <ele>162</ele>
        <time>2013-05-27T16:43:07Z</time>
      </trkpt>
      <trkpt lat="43.61758" lon="1.54586">
        <ele>161</ele>
        <time>2013-05-27T16:43:14Z</time>
      </trkpt>
      <trkpt lat="43.61755" lon="1.54555">
        <ele>159</ele>
        <time>2013-05-27T16:43:21Z</time>
      </trkpt>
      <trkpt lat="43.61754" lon="1.5454">
        <ele>158</ele>
        <time>2013-05-27T16:43:24Z</time>
      </trkpt>
      <trkpt lat="43.61757" lon="1.54512">
        <ele>157</ele>
        <time>2013-05-27T16:43:29Z</time>
      </trkpt>
      <trkpt lat="43.61756" lon="1.54499">
        <ele>157</ele>
        <time>2013-05-27T16:43:31Z</time>
      </trkpt>
      <trkpt lat="43.61758" lon="1.54487">
        <ele>157</ele>
        <time>2013-05-27T16:43:33Z</time>
      </trkpt>
      <trkpt lat="43.61759" lon="1.54464">
        <ele>158</ele>
        <time>2013-05-27T16:43:38Z</time>
      </trkpt>
      <trkpt lat="43.61761" lon="1.54449">
        <ele>158</ele>
        <time>2013-05-27T16:43:42Z</time>
      </trkpt>
      <trkpt lat="43.61774" lon="1.54419">
        <ele>159</ele>
        <time>2013-05-27T16:43:49Z</time>
      </trkpt>
      <trkpt lat="43.6177" lon="1.54385">
        <ele>161</ele>
        <time>2013-05-27T16:43:55Z</time>
      </trkpt>
      <trkpt lat="43.6177" lon="1.5438">
        <ele>161</ele>
        <time>2013-05-27T16:43:56Z</time>
      </trkpt>
      <trkpt lat="43.61776" lon="1.54364">
        <ele>161</ele>
        <time>2013-05-27T16:44:00Z</time>
      </trkpt>
      <trkpt lat="43.61772" lon="1.54332">
        <ele>160</ele>
        <time>2013-05-27T16:44:07Z</time>
      </trkpt>
      <trkpt lat="43.61771" lon="1.54326">
        <ele>160</ele>
        <time>2013-05-27T16:44:08Z</time>
      </trkpt>
      <trkpt lat="43.61763" lon="1.54314">
        <ele>160</ele>
        <time>2013-05-27T16:44:11Z</time>
      </trkpt>
      <trkpt lat="43.61759" lon="1.5431">
        <ele>160</ele>
        <time>2013-05-27T16:44:12Z</time>
      </trkpt>
      <trkpt lat="43.61754" lon="1.54305">
        <ele>159</ele>
        <time>2013-05-27T16:44:13Z</time>
      </trkpt>
      <trkpt lat="43.6175" lon="1.54301">
        <ele>156</ele>
        <time>2013-05-27T16:44:14Z</time>
      </trkpt>
      <trkpt lat="43.61746" lon="1.54296">
        <ele>156</ele>
        <time>2013-05-27T16:44:15Z</time>
      </trkpt>
      <trkpt lat="43.61745" lon="1.54291">
        <ele>156</ele>
        <time>2013-05-27T16:44:16Z</time>
      </trkpt>
      <trkpt lat="43.61745" lon="1.54286">
        <ele>156</ele>
        <time>2013-05-27T16:44:17Z</time>
      </trkpt>
      <trkpt lat="43.61747" lon="1.54282">
        <ele>156</ele>
        <time>2013-05-27T16:44:18Z</time>
      </trkpt>
      <trkpt lat="43.61748" lon="1.54277">
        <ele>156</ele>
        <time>2013-05-27T16:44:19Z</time>
      </trkpt>
      <trkpt lat="43.61751" lon="1.54272">
        <ele>158</ele>
        <time>2013-05-27T16:44:20Z</time>
      </trkpt>
      <trkpt lat="43.61754" lon="1.54267">
        <ele>158</ele>
        <time>2013-05-27T16:44:21Z</time>
      </trkpt>
      <trkpt lat="43.61791" lon="1.54209">
        <ele>157</ele>
        <time>2013-05-27T16:44:29Z</time>
      </trkpt>
      <trkpt lat="43.61821" lon="1.54169">
        <ele>156</ele>
        <time>2013-05-27T16:44:36Z</time>
      </trkpt>
      <trkpt lat="43.61826" lon="1.54164">
        <ele>156</ele>
        <time>2013-05-27T16:44:37Z</time>
      </trkpt>
      <trkpt lat="43.61852" lon="1.54143">
        <ele>155</ele>
        <time>2013-05-27T16:44:42Z</time>
      </trkpt>
      <trkpt lat="43.61858" lon="1.54139">
        <ele>155</ele>
        <time>2013-05-27T16:44:43Z</time>
      </trkpt>
      <trkpt lat="43.61917" lon="1.54093">
        <ele>154</ele>
        <time>2013-05-27T16:44:54Z</time>
      </trkpt>
      <trkpt lat="43.61966" lon="1.54055">
        <ele>154</ele>
        <time>2013-05-27T16:45:03Z</time>
      </trkpt>
      <trkpt lat="43.62" lon="1.54029">
        <ele>156</ele>
        <time>2013-05-27T16:45:09Z</time>
      </trkpt>
      <trkpt lat="43.62046" lon="1.53995">
        <ele>154</ele>
        <time>2013-05-27T16:45:17Z</time>
      </trkpt>
      <trkpt lat="43.62091" lon="1.53961">
        <ele>155</ele>
        <time>2013-05-27T16:45:25Z</time>
      </trkpt>
      <trkpt lat="43.62144" lon="1.53918">
        <ele>155</ele>
        <time>2013-05-27T16:45:35Z</time>
      </trkpt>
      <trkpt lat="43.62191" lon="1.53872">
        <ele>155</ele>
        <time>2013-05-27T16:45:45Z</time>
      </trkpt>
      <trkpt lat="43.6221" lon="1.53853">
        <ele>155</ele>
        <time>2013-05-27T16:45:49Z</time>
      </trkpt>
      <trkpt lat="43.62214" lon="1.53847">
        <ele>155</ele>
        <time>2013-05-27T16:45:50Z</time>
      </trkpt>
      <trkpt lat="43.62218" lon="1.53841">
        <ele>155</ele>
        <time>2013-05-27T16:45:51Z</time>
      </trkpt>
      <trkpt lat="43.6225" lon="1.53794">
        <ele>155</ele>
        <time>2013-05-27T16:45:59Z</time>
      </trkpt>
      <trkpt lat="43.62275" lon="1.53748">
        <ele>155</ele>
        <time>2013-05-27T16:46:06Z</time>
      </trkpt>
      <trkpt lat="43.62303" lon="1.537">
        <ele>154</ele>
        <time>2013-05-27T16:46:13Z</time>
      </trkpt>
      <trkpt lat="43.62323" lon="1.53666">
        <ele>154</ele>
        <time>2013-05-27T16:46:18Z</time>
      </trkpt>
      <trkpt lat="43.62342" lon="1.53623">
        <ele>153</ele>
        <time>2013-05-27T16:46:24Z</time>
      </trkpt>
      <trkpt lat="43.62351" lon="1.53603">
        <ele>153</ele>
        <time>2013-05-27T16:46:27Z</time>
      </trkpt>
      <trkpt lat="43.62354" lon="1.53596">
        <ele>153</ele>
        <time>2013-05-27T16:46:28Z</time>
      </trkpt>
      <trkpt lat="43.62355" lon="1.53588">
        <ele>153</ele>
        <time>2013-05-27T16:46:29Z</time>
      </trkpt>
      <trkpt lat="43.62356" lon="1.53581">
        <ele>152</ele>
        <time>2013-05-27T16:46:30Z</time>
      </trkpt>
      <trkpt lat="43.62354" lon="1.53573">
        <ele>152</ele>
        <time>2013-05-27T16:46:31Z</time>
      </trkpt>
      <trkpt lat="43.62352" lon="1.53565">
        <ele>152</ele>
        <time>2013-05-27T16:46:32Z</time>
      </trkpt>
      <trkpt lat="43.62349" lon="1.53556">
        <ele>152</ele>
        <time>2013-05-27T16:46:33Z</time>
      </trkpt>
      <trkpt lat="43.62344" lon="1.53548">
        <ele>152</ele>
        <time>2013-05-27T16:46:34Z</time>
      </trkpt>
      <trkpt lat="43.62328" lon="1.53508">
        <ele>152</ele>
        <time>2013-05-27T16:46:39Z</time>
      </trkpt>
      <trkpt lat="43.62316" lon="1.53468">
        <ele>152</ele>
        <time>2013-05-27T16:46:44Z</time>
      </trkpt>
      <trkpt lat="43.62314" lon="1.53461">
        <ele>152</ele>
        <time>2013-05-27T16:46:45Z</time>
      </trkpt>
      <trkpt lat="43.62299" lon="1.534">
        <ele>152</ele>
        <time>2013-05-27T16:46:53Z</time>
      </trkpt>
      <trkpt lat="43.62282" lon="1.53333">
        <ele>153</ele>
        <time>2013-05-27T16:47:02Z</time>
      </trkpt>
      <trkpt lat="43.6228" lon="1.53327">
        <ele>153</ele>
        <time>2013-05-27T16:47:03Z</time>
      </trkpt>
      <trkpt lat="43.62278" lon="1.5332">
        <ele>153</ele>
        <time>2013-05-27T16:47:04Z</time>
      </trkpt>
      <trkpt lat="43.62275" lon="1.53307">
        <ele>153</ele>
        <time>2013-05-27T16:47:06Z</time>
      </trkpt>
      <trkpt lat="43.62272" lon="1.53295">
        <ele>154</ele>
        <time>2013-05-27T16:47:08Z</time>
      </trkpt>
      <trkpt lat="43.62271" lon="1.53288">
        <ele>154</ele>
        <time>2013-05-27T16:47:09Z</time>
      </trkpt>
      <trkpt lat="43.62265" lon="1.53263">
        <ele>154</ele>
        <time>2013-05-27T16:47:13Z</time>
      </trkpt>
      <trkpt lat="43.62264" lon="1.53257">
        <ele>155</ele>
        <time>2013-05-27T16:47:14Z</time>
      </trkpt>
      <trkpt lat="43.62255" lon="1.53226">
        <ele>155</ele>
        <time>2013-05-27T16:47:21Z</time>
      </trkpt>
      <trkpt lat="43.62241" lon="1.53203">
        <ele>159</ele>
        <time>2013-05-27T16:47:30Z</time>
      </trkpt>
      <trkpt lat="43.6223" lon="1.53184">
        <ele>159</ele>
        <time>2013-05-27T16:47:38Z</time>
      </trkpt>
      <trkpt lat="43.62221" lon="1.53168">
        <ele>160</ele>
        <time>2013-05-27T16:47:46Z</time>
      </trkpt>
      <trkpt lat="43.6221" lon="1.53152">
        <ele>163</ele>
        <time>2013-05-27T16:47:55Z</time>
      </trkpt>
      <trkpt lat="43.62198" lon="1.53133">
        <ele>164</ele>
        <time>2013-05-27T16:48:06Z</time>
      </trkpt>
      <trkpt lat="43.62185" lon="1.53113">
        <ele>165</ele>
        <time>2013-05-27T16:48:17Z</time>
      </trkpt>
      <trkpt lat="43.62172" lon="1.53104">
        <ele>166</ele>
        <time>2013-05-27T16:48:25Z</time>
      </trkpt>
      <trkpt lat="43.62156" lon="1.53099">
        <ele>170</ele>
        <time>2013-05-27T16:48:35Z</time>
      </trkpt>
      <trkpt lat="43.62141" lon="1.53097">
        <ele>171</ele>
        <time>2013-05-27T16:48:45Z</time>
      </trkpt>
      <trkpt lat="43.62129" lon="1.53094">
        <ele>172</ele>
        <time>2013-05-27T16:48:53Z</time>
      </trkpt>
      <trkpt lat="43.62115" lon="1.53093">
        <ele>173</ele>
        <time>2013-05-27T16:49:02Z</time>
      </trkpt>
      <trkpt lat="43.62104" lon="1.53092">
        <ele>174</ele>
        <time>2013-05-27T16:49:10Z</time>
      </trkpt>
      <trkpt lat="43.62093" lon="1.5309">
        <ele>176</ele>
        <time>2013-05-27T16:49:18Z</time>
      </trkpt>
      <trkpt lat="43.6208" lon="1.53087">
        <ele>179</ele>
        <time>2013-05-27T16:49:27Z</time>
      </trkpt>
      <trkpt lat="43.6207" lon="1.53085">
        <ele>180</ele>
        <time>2013-05-27T16:49:35Z</time>
      </trkpt>
      <trkpt lat="43.62059" lon="1.53082">
        <ele>183</ele>
        <time>2013-05-27T16:49:43Z</time>
      </trkpt>
      <trkpt lat="43.62051" lon="1.5308">
        <ele>184</ele>
        <time>2013-05-27T16:49:50Z</time>
      </trkpt>
      <trkpt lat="43.62041" lon="1.53079">
        <ele>186</ele>
        <time>2013-05-27T16:49:56Z</time>
      </trkpt>
      <trkpt lat="43.62032" lon="1.53077">
        <ele>187</ele>
        <time>2013-05-27T16:50:02Z</time>
      </trkpt>
      <trkpt lat="43.62023" lon="1.53073">
        <ele>188</ele>
        <time>2013-05-27T16:50:09Z</time>
      </trkpt>
      <trkpt lat="43.62015" lon="1.53069">
        <ele>188</ele>
        <time>2013-05-27T16:50:16Z</time>
      </trkpt>
      <trkpt lat="43.62009" lon="1.53063">
        <ele>188</ele>
        <time>2013-05-27T16:50:22Z</time>
      </trkpt>
      <trkpt lat="43.62005" lon="1.53062">
        <ele>189</ele>
        <time>2013-05-27T16:50:25Z</time>
      </trkpt>
      <trkpt lat="43.62001" lon="1.53056">
        <ele>189</ele>
        <time>2013-05-27T16:50:30Z</time>
      </trkpt>
      <trkpt lat="43.61995" lon="1.53051">
        <ele>196</ele>
        <time>2013-05-27T16:50:37Z</time>
      </trkpt>
      <trkpt lat="43.61987" lon="1.53046">
        <ele>197</ele>
        <time>2013-05-27T16:50:44Z</time>
      </trkpt>
      <trkpt lat="43.61975" lon="1.53037">
        <ele>198</ele>
        <time>2013-05-27T16:50:54Z</time>
      </trkpt>
      <trkpt lat="43.61964" lon="1.5303">
        <ele>199</ele>
        <time>2013-05-27T16:51:03Z</time>
      </trkpt>
      <trkpt lat="43.61957" lon="1.53025">
        <ele>199</ele>
        <time>2013-05-27T16:51:09Z</time>
      </trkpt>
      <trkpt lat="43.61949" lon="1.53018">
        <ele>200</ele>
        <time>2013-05-27T16:51:16Z</time>
      </trkpt>
      <trkpt lat="43.61941" lon="1.53012">
        <ele>201</ele>
        <time>2013-05-27T16:51:23Z</time>
      </trkpt>
      <trkpt lat="43.61931" lon="1.53006">
        <ele>203</ele>
        <time>2013-05-27T16:51:31Z</time>
      </trkpt>
      <trkpt lat="43.61921" lon="1.52999">
        <ele>205</ele>
        <time>2013-05-27T16:51:39Z</time>
      </trkpt>
      <trkpt lat="43.61912" lon="1.52993">
        <ele>205</ele>
        <time>2013-05-27T16:51:47Z</time>
      </trkpt>
      <trkpt lat="43.61906" lon="1.52983">
        <ele>205</ele>
        <time>2013-05-27T16:51:56Z</time>
      </trkpt>
      <trkpt lat="43.61906" lon="1.52981">
        <ele>205</ele>
        <time>2013-05-27T16:51:58Z</time>
      </trkpt>
      <trkpt lat="43.61914" lon="1.52968">
        <ele>205</ele>
        <time>2013-05-27T16:52:07Z</time>
      </trkpt>
      <trkpt lat="43.61917" lon="1.52957">
        <ele>203</ele>
        <time>2013-05-27T16:52:14Z</time>
      </trkpt>
      <trkpt lat="43.61914" lon="1.52947">
        <ele>205</ele>
        <time>2013-05-27T16:52:21Z</time>
      </trkpt>
      <trkpt lat="43.61914" lon="1.52947">
        <ele>205</ele>
        <time>2013-05-27T16:52:34Z</time>
      </trkpt>
      <trkpt lat="43.61913" lon="1.52946">
        <ele>205</ele>
        <time>2013-05-27T16:52:47Z</time>
      </trkpt>
      <trkpt lat="43.61913" lon="1.52946">
        <ele>205</ele>
        <time>2013-05-27T16:53:00Z</time>
      </trkpt>
      <trkpt lat="43.61912" lon="1.52946">
        <ele>205</ele>
        <time>2013-05-27T16:53:09Z</time>
      </trkpt>
      <trkpt lat="43.61912" lon="1.52945">
        <ele>205</ele>
        <time>2013-05-27T16:53:18Z</time>
      </trkpt>
      <trkpt lat="43.61912" lon="1.52945">
        <ele>205</ele>
        <time>2013-05-27T16:53:28Z</time>
      </trkpt>
      <trkpt lat="43.61912" lon="1.52941">
        <ele>206</ele>
        <time>2013-05-27T16:53:36Z</time>
      </trkpt>
      <trkpt lat="43.61915" lon="1.52927">
        <ele>207</ele>
        <time>2013-05-27T16:53:43Z</time>
      </trkpt>
      <trkpt lat="43.61916" lon="1.52927">
        <ele>207</ele>
        <time>2013-05-27T16:53:53Z</time>
      </trkpt>
      <trkpt lat="43.61915" lon="1.52925">
        <ele>207</ele>
        <time>2013-05-27T16:53:57Z</time>
      </trkpt>
      <trkpt lat="43.61918" lon="1.52906">
        <ele>206</ele>
        <time>2013-05-27T16:54:04Z</time>
      </trkpt>
      <trkpt lat="43.61931" lon="1.52875">
        <ele>204</ele>
        <time>2013-05-27T16:54:11Z</time>
      </trkpt>
      <trkpt lat="43.61944" lon="1.52835">
        <ele>205</ele>
        <time>2013-05-27T16:54:19Z</time>
      </trkpt>
      <trkpt lat="43.61958" lon="1.5279">
        <ele>205</ele>
        <time>2013-05-27T16:54:27Z</time>
      </trkpt>
      <trkpt lat="43.61971" lon="1.52735">
        <ele>205</ele>
        <time>2013-05-27T16:54:36Z</time>
      </trkpt>
      <trkpt lat="43.61989" lon="1.52667">
        <ele>206</ele>
        <time>2013-05-27T16:54:45Z</time>
      </trkpt>
      <trkpt lat="43.6201" lon="1.52588">
        <ele>208</ele>
        <time>2013-05-27T16:54:54Z</time>
      </trkpt>
      <trkpt lat="43.62031" lon="1.52505">
        <ele>207</ele>
        <time>2013-05-27T16:55:03Z</time>
      </trkpt>
      <trkpt lat="43.62035" lon="1.52488">
        <ele>208</ele>
        <time>2013-05-27T16:55:05Z</time>
      </trkpt>
      <trkpt lat="43.62034" lon="1.52479">
        <ele>208</ele>
        <time>2013-05-27T16:55:06Z</time>
      </trkpt>
      <trkpt lat="43.62031" lon="1.52471">
        <ele>208</ele>
        <time>2013-05-27T16:55:07Z</time>
      </trkpt>
      <trkpt lat="43.62026" lon="1.52465">
        <ele>208</ele>
        <time>2013-05-27T16:55:08Z</time>
      </trkpt>
      <trkpt lat="43.62021" lon="1.52461">
        <ele>208</ele>
        <time>2013-05-27T16:55:09Z</time>
      </trkpt>
      <trkpt lat="43.62016" lon="1.52457">
        <ele>208</ele>
        <time>2013-05-27T16:55:10Z</time>
      </trkpt>
      <trkpt lat="43.62011" lon="1.52454">
        <ele>209</ele>
        <time>2013-05-27T16:55:11Z</time>
      </trkpt>
      <trkpt lat="43.61978" lon="1.52432">
        <ele>210</ele>
        <time>2013-05-27T16:55:18Z</time>
      </trkpt>
      <trkpt lat="43.61933" lon="1.52408">
        <ele>209</ele>
        <time>2013-05-27T16:55:26Z</time>
      </trkpt>
      <trkpt lat="43.61926" lon="1.52405">
        <ele>209</ele>
        <time>2013-05-27T16:55:27Z</time>
      </trkpt>
      <trkpt lat="43.6187" lon="1.52391">
        <ele>207</ele>
        <time>2013-05-27T16:55:34Z</time>
      </trkpt>
      <trkpt lat="43.6182" lon="1.52377">
        <ele>207</ele>
        <time>2013-05-27T16:55:41Z</time>
      </trkpt>
      <trkpt lat="43.61785" lon="1.52366">
        <ele>208</ele>
        <time>2013-05-27T16:55:48Z</time>
      </trkpt>
      <trkpt lat="43.61772" lon="1.52361">
        <ele>209</ele>
        <time>2013-05-27T16:55:51Z</time>
      </trkpt>
      <trkpt lat="43.61763" lon="1.52359">
        <ele>209</ele>
        <time>2013-05-27T16:55:53Z</time>
      </trkpt>
      <trkpt lat="43.61748" lon="1.52354">
        <ele>212</ele>
        <time>2013-05-27T16:55:56Z</time>
      </trkpt>
      <trkpt lat="43.6174" lon="1.52352">
        <ele>212</ele>
        <time>2013-05-27T16:55:58Z</time>
      </trkpt>
      <trkpt lat="43.61716" lon="1.52344">
        <ele>213</ele>
        <time>2013-05-27T16:56:04Z</time>
      </trkpt>
      <trkpt lat="43.61712" lon="1.52343">
        <ele>213</ele>
        <time>2013-05-27T16:56:05Z</time>
      </trkpt>
      <trkpt lat="43.61704" lon="1.5234">
        <ele>213</ele>
        <time>2013-05-27T16:56:07Z</time>
      </trkpt>
      <trkpt lat="43.617" lon="1.52338">
        <ele>213</ele>
        <time>2013-05-27T16:56:08Z</time>
      </trkpt>
      <trkpt lat="43.61696" lon="1.52338">
        <ele>214</ele>
        <time>2013-05-27T16:56:09Z</time>
      </trkpt>
      <trkpt lat="43.61688" lon="1.52335">
        <ele>214</ele>
        <time>2013-05-27T16:56:11Z</time>
      </trkpt>
      <trkpt lat="43.61684" lon="1.52334">
        <ele>214</ele>
        <time>2013-05-27T16:56:12Z</time>
      </trkpt>
      <trkpt lat="43.61669" lon="1.52327">
        <ele>216</ele>
        <time>2013-05-27T16:56:16Z</time>
      </trkpt>
      <trkpt lat="43.61652" lon="1.5232">
        <ele>217</ele>
        <time>2013-05-27T16:56:20Z</time>
      </trkpt>
      <trkpt lat="43.61648" lon="1.52319">
        <ele>218</ele>
        <time>2013-05-27T16:56:21Z</time>
      </trkpt>
      <trkpt lat="43.61644" lon="1.52317">
        <ele>218</ele>
        <time>2013-05-27T16:56:22Z</time>
      </trkpt>
      <trkpt lat="43.61625" lon="1.5231">
        <ele>218</ele>
        <time>2013-05-27T16:56:28Z</time>
      </trkpt>
      <trkpt lat="43.61616" lon="1.52305">
        <ele>219</ele>
        <time>2013-05-27T16:56:34Z</time>
      </trkpt>
      <trkpt lat="43.61614" lon="1.52308">
        <ele>219</ele>
        <time>2013-05-27T16:56:35Z</time>
      </trkpt>
      <trkpt lat="43.61613" lon="1.52312">
        <ele>219</ele>
        <time>2013-05-27T16:56:36Z</time>
      </trkpt>
      <trkpt lat="43.61598" lon="1.52349">
        <ele>219</ele>
        <time>2013-05-27T16:56:45Z</time>
      </trkpt>
      <trkpt lat="43.61584" lon="1.52378">
        <ele>218</ele>
        <time>2013-05-27T16:56:52Z</time>
      </trkpt>
      <trkpt lat="43.61562" lon="1.52418">
        <ele>220</ele>
        <time>2013-05-27T16:57:02Z</time>
      </trkpt>
      <trkpt lat="43.61539" lon="1.52458">
        <ele>221</ele>
        <time>2013-05-27T16:57:12Z</time>
      </trkpt>
      <trkpt lat="43.6151" lon="1.52504">
        <ele>221</ele>
        <time>2013-05-27T16:57:24Z</time>
      </trkpt>
      <trkpt lat="43.61492" lon="1.52538">
        <ele>221</ele>
        <time>2013-05-27T16:57:32Z</time>
      </trkpt>
      <trkpt lat="43.6147" lon="1.52578">
        <ele>222</ele>
        <time>2013-05-27T16:57:41Z</time>
      </trkpt>
      <trkpt lat="43.61444" lon="1.52626">
        <ele>222</ele>
        <time>2013-05-27T16:57:52Z</time>
      </trkpt>
      <trkpt lat="43.6142" lon="1.52667">
        <ele>223</ele>
        <time>2013-05-27T16:58:01Z</time>
      </trkpt>
      <trkpt lat="43.614" lon="1.52704">
        <ele>224</ele>
        <time>2013-05-27T16:58:09Z</time>
      </trkpt>
      <trkpt lat="43.61397" lon="1.52708">
        <ele>224</ele>
        <time>2013-05-27T16:58:10Z</time>
      </trkpt>
      <trkpt lat="43.61394" lon="1.52712">
        <ele>224</ele>
        <time>2013-05-27T16:58:11Z</time>
      </trkpt>
      <trkpt lat="43.6139" lon="1.52714">
        <ele>225</ele>
        <time>2013-05-27T16:58:12Z</time>
      </trkpt>
      <trkpt lat="43.61386" lon="1.52717">
        <ele>225</ele>
        <time>2013-05-27T16:58:13Z</time>
      </trkpt>
      <trkpt lat="43.61382" lon="1.52719">
        <ele>225</ele>
        <time>2013-05-27T16:58:14Z</time>
      </trkpt>
      <trkpt lat="43.61378" lon="1.52721">
        <ele>225</ele>
        <time>2013-05-27T16:58:15Z</time>
      </trkpt>
      <trkpt lat="43.61373" lon="1.52721">
        <ele>225</ele>
        <time>2013-05-27T16:58:16Z</time>
      </trkpt>
      <trkpt lat="43.61368" lon="1.52721">
        <ele>225</ele>
        <time>2013-05-27T16:58:17Z</time>
      </trkpt>
      <trkpt lat="43.61363" lon="1.5272">
        <ele>225</ele>
        <time>2013-05-27T16:58:18Z</time>
      </trkpt>
      <trkpt lat="43.61358" lon="1.52719">
        <ele>225</ele>
        <time>2013-05-27T16:58:19Z</time>
      </trkpt>
      <trkpt lat="43.61352" lon="1.52717">
        <ele>225</ele>
        <time>2013-05-27T16:58:20Z</time>
      </trkpt>
      <trkpt lat="43.613" lon="1.52689">
        <ele>224</ele>
        <time>2013-05-27T16:58:29Z</time>
      </trkpt>
      <trkpt lat="43.61258" lon="1.52652">
        <ele>221</ele>
        <time>2013-05-27T16:58:36Z</time>
      </trkpt>
      <trkpt lat="43.61251" lon="1.52648">
        <ele>221</ele>
        <time>2013-05-27T16:58:37Z</time>
      </trkpt>
      <trkpt lat="43.61244" lon="1.52644">
        <ele>220</ele>
        <time>2013-05-27T16:58:38Z</time>
      </trkpt>
      <trkpt lat="43.61238" lon="1.5264">
        <ele>219</ele>
        <time>2013-05-27T16:58:39Z</time>
      </trkpt>
      <trkpt lat="43.61231" lon="1.52635">
        <ele>219</ele>
        <time>2013-05-27T16:58:40Z</time>
      </trkpt>
      <trkpt lat="43.61226" lon="1.52629">
        <ele>219</ele>
        <time>2013-05-27T16:58:41Z</time>
      </trkpt>
      <trkpt lat="43.61221" lon="1.52622">
        <ele>219</ele>
        <time>2013-05-27T16:58:42Z</time>
      </trkpt>
      <trkpt lat="43.61215" lon="1.52615">
        <ele>218</ele>
        <time>2013-05-27T16:58:43Z</time>
      </trkpt>
      <trkpt lat="43.61209" lon="1.52612">
        <ele>218</ele>
        <time>2013-05-27T16:58:44Z</time>
      </trkpt>
      <trkpt lat="43.61203" lon="1.52612">
        <ele>218</ele>
        <time>2013-05-27T16:58:45Z</time>
      </trkpt>
      <trkpt lat="43.61197" lon="1.52616">
        <ele>218</ele>
        <time>2013-05-27T16:58:46Z</time>
      </trkpt>
      <trkpt lat="43.61193" lon="1.52624">
        <ele>218</ele>
        <time>2013-05-27T16:58:47Z</time>
      </trkpt>
      <trkpt lat="43.61191" lon="1.52632">
        <ele>218</ele>
        <time>2013-05-27T16:58:48Z</time>
      </trkpt>
      <trkpt lat="43.61191" lon="1.52641">
        <ele>218</ele>
        <time>2013-05-27T16:58:49Z</time>
      </trkpt>
      <trkpt lat="43.61193" lon="1.52648">
        <ele>219</ele>
        <time>2013-05-27T16:58:50Z</time>
      </trkpt>
      <trkpt lat="43.61195" lon="1.52657">
        <ele>219</ele>
        <time>2013-05-27T16:58:51Z</time>
      </trkpt>
      <trkpt lat="43.61196" lon="1.52665">
        <ele>219</ele>
        <time>2013-05-27T16:58:52Z</time>
      </trkpt>
      <trkpt lat="43.61197" lon="1.52728">
        <ele>221</ele>
        <time>2013-05-27T16:58:59Z</time>
      </trkpt>
      <trkpt lat="43.61189" lon="1.52799">
        <ele>222</ele>
        <time>2013-05-27T16:59:07Z</time>
      </trkpt>
      <trkpt lat="43.61165" lon="1.52866">
        <ele>219</ele>
        <time>2013-05-27T16:59:16Z</time>
      </trkpt>
      <trkpt lat="43.61157" lon="1.52885">
        <ele>220</ele>
        <time>2013-05-27T16:59:19Z</time>
      </trkpt>
      <trkpt lat="43.61154" lon="1.52891">
        <ele>220</ele>
        <time>2013-05-27T16:59:20Z</time>
      </trkpt>
      <trkpt lat="43.61133" lon="1.52937">
        <ele>221</ele>
        <time>2013-05-27T16:59:28Z</time>
      </trkpt>
      <trkpt lat="43.61127" lon="1.52955">
        <ele>221</ele>
        <time>2013-05-27T16:59:31Z</time>
      </trkpt>
      <trkpt lat="43.61119" lon="1.52987">
        <ele>221</ele>
        <time>2013-05-27T16:59:36Z</time>
      </trkpt>
      <trkpt lat="43.61115" lon="1.53044">
        <ele>222</ele>
        <time>2013-05-27T16:59:45Z</time>
      </trkpt>
      <trkpt lat="43.6112" lon="1.53092">
        <ele>223</ele>
        <time>2013-05-27T16:59:53Z</time>
      </trkpt>
      <trkpt lat="43.61136" lon="1.53149">
        <ele>224</ele>
        <time>2013-05-27T17:00:03Z</time>
      </trkpt>
      <trkpt lat="43.61144" lon="1.53178">
        <ele>224</ele>
        <time>2013-05-27T17:00:08Z</time>
      </trkpt>
      <trkpt lat="43.61144" lon="1.53185">
        <ele>224</ele>
        <time>2013-05-27T17:00:09Z</time>
      </trkpt>
      <trkpt lat="43.61145" lon="1.53192">
        <ele>224</ele>
        <time>2013-05-27T17:00:10Z</time>
      </trkpt>
      <trkpt lat="43.61146" lon="1.53199">
        <ele>224</ele>
        <time>2013-05-27T17:00:11Z</time>
      </trkpt>
      <trkpt lat="43.6115" lon="1.53205">
        <ele>224</ele>
        <time>2013-05-27T17:00:12Z</time>
      </trkpt>
      <trkpt lat="43.61154" lon="1.5321">
        <ele>224</ele>
        <time>2013-05-27T17:00:13Z</time>
      </trkpt>
      <trkpt lat="43.61159" lon="1.53214">
        <ele>224</ele>
        <time>2013-05-27T17:00:14Z</time>
      </trkpt>
      <trkpt lat="43.61163" lon="1.5322">
        <ele>224</ele>
        <time>2013-05-27T17:00:15Z</time>
      </trkpt>
      <trkpt lat="43.61166" lon="1.53227">
        <ele>224</ele>
        <time>2013-05-27T17:00:16Z</time>
      </trkpt>
      <trkpt lat="43.61169" lon="1.53234">
        <ele>225</ele>
        <time>2013-05-27T17:00:17Z</time>
      </trkpt>
      <trkpt lat="43.61171" lon="1.53243">
        <ele>226</ele>
        <time>2013-05-27T17:00:18Z</time>
      </trkpt>
      <trkpt lat="43.61172" lon="1.53252">
        <ele>225</ele>
        <time>2013-05-27T17:00:19Z</time>
      </trkpt>
      <trkpt lat="43.61182" lon="1.53316">
        <ele>224</ele>
        <time>2013-05-27T17:00:25Z</time>
      </trkpt>
      <trkpt lat="43.61191" lon="1.53397">
        <ele>218</ele>
        <time>2013-05-27T17:00:31Z</time>
      </trkpt>
      <trkpt lat="43.6119" lon="1.5349">
        <ele>211</ele>
        <time>2013-05-27T17:00:37Z</time>
      </trkpt>
      <trkpt lat="43.61184" lon="1.53622">
        <ele>202</ele>
        <time>2013-05-27T17:00:45Z</time>
      </trkpt>
      <trkpt lat="43.61176" lon="1.5378">
        <ele>194</ele>
        <time>2013-05-27T17:00:55Z</time>
      </trkpt>
      <trkpt lat="43.6116" lon="1.53906">
        <ele>189</ele>
        <time>2013-05-27T17:01:03Z</time>
      </trkpt>
      <trkpt lat="43.61131" lon="1.54034">
        <ele>182</ele>
        <time>2013-05-27T17:01:11Z</time>
      </trkpt>
      <trkpt lat="43.61107" lon="1.54149">
        <ele>177</ele>
        <time>2013-05-27T17:01:18Z</time>
      </trkpt>
      <trkpt lat="43.61102" lon="1.54199">
        <ele>173</ele>
        <time>2013-05-27T17:01:21Z</time>
      </trkpt>
      <trkpt lat="43.61102" lon="1.54216">
        <ele>172</ele>
        <time>2013-05-27T17:01:22Z</time>
      </trkpt>
      <trkpt lat="43.61103" lon="1.54232">
        <ele>172</ele>
        <time>2013-05-27T17:01:23Z</time>
      </trkpt>
      <trkpt lat="43.61105" lon="1.54248">
        <ele>172</ele>
        <time>2013-05-27T17:01:24Z</time>
      </trkpt>
      <trkpt lat="43.61108" lon="1.54265">
        <ele>169</ele>
        <time>2013-05-27T17:01:25Z</time>
      </trkpt>
      <trkpt lat="43.61131" lon="1.54339">
        <ele>166</ele>
        <time>2013-05-27T17:01:30Z</time>
      </trkpt>
      <trkpt lat="43.61188" lon="1.54457">
        <ele>161</ele>
        <time>2013-05-27T17:01:39Z</time>
      </trkpt>
      <trkpt lat="43.61226" lon="1.54542">
        <ele>159</ele>
        <time>2013-05-27T17:01:46Z</time>
      </trkpt>
      <trkpt lat="43.61248" lon="1.54633">
        <ele>158</ele>
        <time>2013-05-27T17:01:53Z</time>
      </trkpt>
      <trkpt lat="43.61254" lon="1.54667">
        <ele>156</ele>
        <time>2013-05-27T17:01:56Z</time>
      </trkpt>
      <trkpt lat="43.61252" lon="1.54677">
        <ele>156</ele>
        <time>2013-05-27T17:01:57Z</time>
      </trkpt>
      <trkpt lat="43.61247" lon="1.54684">
        <ele>157</ele>
        <time>2013-05-27T17:01:58Z</time>
      </trkpt>
      <trkpt lat="43.61241" lon="1.54688">
        <ele>157</ele>
        <time>2013-05-27T17:01:59Z</time>
      </trkpt>
      <trkpt lat="43.61235" lon="1.5469">
        <ele>157</ele>
        <time>2013-05-27T17:02:00Z</time>
      </trkpt>
      <trkpt lat="43.61229" lon="1.54692">
        <ele>157</ele>
        <time>2013-05-27T17:02:01Z</time>
      </trkpt>
      <trkpt lat="43.61224" lon="1.54694">
        <ele>157</ele>
        <time>2013-05-27T17:02:02Z</time>
      </trkpt>
      <trkpt lat="43.61219" lon="1.54697">
        <ele>158</ele>
        <time>2013-05-27T17:02:03Z</time>
      </trkpt>
      <trkpt lat="43.61215" lon="1.547">
        <ele>158</ele>
        <time>2013-05-27T17:02:04Z</time>
      </trkpt>
      <trkpt lat="43.61211" lon="1.54704">
        <ele>158</ele>
        <time>2013-05-27T17:02:05Z</time>
      </trkpt>
      <trkpt lat="43.61208" lon="1.54709">
        <ele>158</ele>
        <time>2013-05-27T17:02:06Z</time>
      </trkpt>
      <trkpt lat="43.61205" lon="1.54714">
        <ele>158</ele>
        <time>2013-05-27T17:02:07Z</time>
      </trkpt>
      <trkpt lat="43.61189" lon="1.54745">
        <ele>158</ele>
        <time>2013-05-27T17:02:13Z</time>
      </trkpt>
      <trkpt lat="43.6116" lon="1.54797">
        <ele>159</ele>
        <time>2013-05-27T17:02:23Z</time>
      </trkpt>
      <trkpt lat="43.61136" lon="1.54844">
        <ele>157</ele>
        <time>2013-05-27T17:02:32Z</time>
      </trkpt>
      <trkpt lat="43.61098" lon="1.54913">
        <ele>158</ele>
        <time>2013-05-27T17:02:44Z</time>
      </trkpt>
      <trkpt lat="43.6106" lon="1.54968">
        <ele>160</ele>
        <time>2013-05-27T17:02:54Z</time>
      </trkpt>
      <trkpt lat="43.61056" lon="1.54974">
        <ele>160</ele>
        <time>2013-05-27T17:02:55Z</time>
      </trkpt>
      <trkpt lat="43.61049" lon="1.54986">
        <ele>160</ele>
        <time>2013-05-27T17:02:57Z</time>
      </trkpt>
      <trkpt lat="43.61021" lon="1.55042">
        <ele>159</ele>
        <time>2013-05-27T17:03:05Z</time>
      </trkpt>
      <trkpt lat="43.61016" lon="1.55057">
        <ele>159</ele>
        <time>2013-05-27T17:03:07Z</time>
      </trkpt>
      <trkpt lat="43.60989" lon="1.55123">
        <ele>159</ele>
        <time>2013-05-27T17:03:16Z</time>
      </trkpt>
      <trkpt lat="43.60963" lon="1.55169">
        <ele>157</ele>
        <time>2013-05-27T17:03:23Z</time>
      </trkpt>
      <trkpt lat="43.60928" lon="1.55234">
        <ele>157</ele>
        <time>2013-05-27T17:03:33Z</time>
      </trkpt>
      <trkpt lat="43.60895" lon="1.55299">
        <ele>158</ele>
        <time>2013-05-27T17:03:43Z</time>
      </trkpt>
      <trkpt lat="43.60866" lon="1.55358">
        <ele>158</ele>
        <time>2013-05-27T17:03:53Z</time>
      </trkpt>
      <trkpt lat="43.60836" lon="1.5542">
        <ele>158</ele>
        <time>2013-05-27T17:04:04Z</time>
      </trkpt>
      <trkpt lat="43.60809" lon="1.55474">
        <ele>159</ele>
        <time>2013-05-27T17:04:14Z</time>
      </trkpt>
      <trkpt lat="43.60788" lon="1.55517">
        <ele>159</ele>
        <time>2013-05-27T17:04:22Z</time>
      </trkpt>
      <trkpt lat="43.6076" lon="1.55575">
        <ele>159</ele>
        <time>2013-05-27T17:04:33Z</time>
      </trkpt>
      <trkpt lat="43.60736" lon="1.55622">
        <ele>160</ele>
        <time>2013-05-27T17:04:42Z</time>
      </trkpt>
      <trkpt lat="43.60707" lon="1.5568">
        <ele>160</ele>
        <time>2013-05-27T17:04:53Z</time>
      </trkpt>
      <trkpt lat="43.6069" lon="1.55721">
        <ele>160</ele>
        <time>2013-05-27T17:05:00Z</time>
      </trkpt>
      <trkpt lat="43.60688" lon="1.55727">
        <ele>160</ele>
        <time>2013-05-27T17:05:01Z</time>
      </trkpt>
      <trkpt lat="43.60686" lon="1.55734">
        <ele>160</ele>
        <time>2013-05-27T17:05:02Z</time>
      </trkpt>
      <trkpt lat="43.60685" lon="1.55741">
        <ele>160</ele>
        <time>2013-05-27T17:05:03Z</time>
      </trkpt>
      <trkpt lat="43.60685" lon="1.55748">
        <ele>160</ele>
        <time>2013-05-27T17:05:04Z</time>
      </trkpt>
      <trkpt lat="43.60684" lon="1.55754">
        <ele>159</ele>
        <time>2013-05-27T17:05:05Z</time>
      </trkpt>
      <trkpt lat="43.60684" lon="1.55812">
        <ele>159</ele>
        <time>2013-05-27T17:05:14Z</time>
      </trkpt>
      <trkpt lat="43.60686" lon="1.55853">
        <ele>158</ele>
        <time>2013-05-27T17:05:21Z</time>
      </trkpt>
      <trkpt lat="43.60687" lon="1.55859">
        <ele>158</ele>
        <time>2013-05-27T17:05:22Z</time>
      </trkpt>
      <trkpt lat="43.6069" lon="1.55865">
        <ele>158</ele>
        <time>2013-05-27T17:05:23Z</time>
      </trkpt>
      <trkpt lat="43.60693" lon="1.55871">
        <ele>158</ele>
        <time>2013-05-27T17:05:24Z</time>
      </trkpt>
      <trkpt lat="43.60696" lon="1.55876">
        <ele>158</ele>
        <time>2013-05-27T17:05:25Z</time>
      </trkpt>
      <trkpt lat="43.607" lon="1.55881">
        <ele>158</ele>
        <time>2013-05-27T17:05:26Z</time>
      </trkpt>
      <trkpt lat="43.60704" lon="1.55886">
        <ele>158</ele>
        <time>2013-05-27T17:05:27Z</time>
      </trkpt>
      <trkpt lat="43.60708" lon="1.55891">
        <ele>158</ele>
        <time>2013-05-27T17:05:28Z</time>
      </trkpt>
      <trkpt lat="43.60731" lon="1.55935">
        <ele>157</ele>
        <time>2013-05-27T17:05:35Z</time>
      </trkpt>
      <trkpt lat="43.60738" lon="1.55948">
        <ele>157</ele>
        <time>2013-05-27T17:05:37Z</time>
      </trkpt>
      <trkpt lat="43.60757" lon="1.5599">
        <ele>156</ele>
        <time>2013-05-27T17:05:43Z</time>
      </trkpt>
      <trkpt lat="43.60779" lon="1.56056">
        <ele>157</ele>
        <time>2013-05-27T17:05:52Z</time>
      </trkpt>
      <trkpt lat="43.60792" lon="1.56097">
        <ele>158</ele>
        <time>2013-05-27T17:05:58Z</time>
      </trkpt>
      <trkpt lat="43.60793" lon="1.56104">
        <ele>158</ele>
        <time>2013-05-27T17:05:59Z</time>
      </trkpt>
      <trkpt lat="43.60812" lon="1.56163">
        <ele>158</ele>
        <time>2013-05-27T17:06:08Z</time>
      </trkpt>
      <trkpt lat="43.60818" lon="1.56182">
        <ele>159</ele>
        <time>2013-05-27T17:06:11Z</time>
      </trkpt>
      <trkpt lat="43.60818" lon="1.56188">
        <ele>159</ele>
        <time>2013-05-27T17:06:12Z</time>
      </trkpt>
      <trkpt lat="43.60817" lon="1.56195">
        <ele>159</ele>
        <time>2013-05-27T17:06:13Z</time>
      </trkpt>
      <trkpt lat="43.60815" lon="1.562">
        <ele>159</ele>
        <time>2013-05-27T17:06:14Z</time>
      </trkpt>
      <trkpt lat="43.60812" lon="1.56206">
        <ele>159</ele>
        <time>2013-05-27T17:06:15Z</time>
      </trkpt>
      <trkpt lat="43.6081" lon="1.56211">
        <ele>159</ele>
        <time>2013-05-27T17:06:16Z</time>
      </trkpt>
      <trkpt lat="43.60797" lon="1.56239">
        <ele>159</ele>
        <time>2013-05-27T17:06:21Z</time>
      </trkpt>
      <trkpt lat="43.60795" lon="1.56244">
        <ele>159</ele>
        <time>2013-05-27T17:06:22Z</time>
      </trkpt>
      <trkpt lat="43.60775" lon="1.5629">
        <ele>161</ele>
        <time>2013-05-27T17:06:31Z</time>
      </trkpt>
      <trkpt lat="43.60753" lon="1.56345">
        <ele>161</ele>
        <time>2013-05-27T17:06:43Z</time>
      </trkpt>
      <trkpt lat="43.60733" lon="1.56393">
        <ele>160</ele>
        <time>2013-05-27T17:06:53Z</time>
      </trkpt>
      <trkpt lat="43.60718" lon="1.5643">
        <ele>163</ele>
        <time>2013-05-27T17:07:01Z</time>
      </trkpt>
      <trkpt lat="43.60706" lon="1.56463">
        <ele>163</ele>
        <time>2013-05-27T17:07:09Z</time>
      </trkpt>
      <trkpt lat="43.60691" lon="1.56501">
        <ele>167</ele>
        <time>2013-05-27T17:07:19Z</time>
      </trkpt>
      <trkpt lat="43.6068" lon="1.56531">
        <ele>168</ele>
        <time>2013-05-27T17:07:28Z</time>
      </trkpt>
      <trkpt lat="43.60669" lon="1.56558">
        <ele>169</ele>
        <time>2013-05-27T17:07:36Z</time>
      </trkpt>
      <trkpt lat="43.60659" lon="1.56583">
        <ele>168</ele>
        <time>2013-05-27T17:07:45Z</time>
      </trkpt>
      <trkpt lat="43.6065" lon="1.56608">
        <ele>170</ele>
        <time>2013-05-27T17:07:54Z</time>
      </trkpt>
      <trkpt lat="43.60643" lon="1.56626">
        <ele>171</ele>
        <time>2013-05-27T17:08:01Z</time>
      </trkpt>
      <trkpt lat="43.6063" lon="1.56657">
        <ele>172</ele>
        <time>2013-05-27T17:08:13Z</time>
      </trkpt>
      <trkpt lat="43.6062" lon="1.56681">
        <ele>176</ele>
        <time>2013-05-27T17:08:22Z</time>
      </trkpt>
      <trkpt lat="43.60609" lon="1.56709">
        <ele>176</ele>
        <time>2013-05-27T17:08:31Z</time>
      </trkpt>
      <trkpt lat="43.60597" lon="1.56742">
        <ele>177</ele>
        <time>2013-05-27T17:08:40Z</time>
      </trkpt>
      <trkpt lat="43.60582" lon="1.56783">
        <ele>174</ele>
        <time>2013-05-27T17:08:50Z</time>
      </trkpt>
      <trkpt lat="43.60571" lon="1.56817">
        <ele>175</ele>
        <time>2013-05-27T17:08:57Z</time>
      </trkpt>
      <trkpt lat="43.60566" lon="1.56837">
        <ele>176</ele>
        <time>2013-05-27T17:09:01Z</time>
      </trkpt>
      <trkpt lat="43.60562" lon="1.56886">
        <ele>177</ele>
        <time>2013-05-27T17:09:10Z</time>
      </trkpt>
      <trkpt lat="43.60559" lon="1.56925">
        <ele>181</ele>
        <time>2013-05-27T17:09:18Z</time>
      </trkpt>
      <trkpt lat="43.60556" lon="1.56971">
        <ele>183</ele>
        <time>2013-05-27T17:09:29Z</time>
      </trkpt>
      <trkpt lat="43.60555" lon="1.5701">
        <ele>187</ele>
        <time>2013-05-27T17:09:39Z</time>
      </trkpt>
      <trkpt lat="43.60548" lon="1.57028">
        <ele>187</ele>
        <time>2013-05-27T17:09:44Z</time>
      </trkpt>
      <trkpt lat="43.60539" lon="1.57048">
        <ele>188</ele>
        <time>2013-05-27T17:09:50Z</time>
      </trkpt>
      <trkpt lat="43.60527" lon="1.57083">
        <ele>188</ele>
        <time>2013-05-27T17:10:00Z</time>
      </trkpt>
      <trkpt lat="43.60518" lon="1.57109">
        <ele>190</ele>
        <time>2013-05-27T17:10:08Z</time>
      </trkpt>
      <trkpt lat="43.60507" lon="1.5714">
        <ele>191</ele>
        <time>2013-05-27T17:10:17Z</time>
      </trkpt>
      <trkpt lat="43.60498" lon="1.57178">
        <ele>188</ele>
        <time>2013-05-27T17:10:25Z</time>
      </trkpt>
      <trkpt lat="43.60491" lon="1.57204">
        <ele>187</ele>
        <time>2013-05-27T17:10:30Z</time>
      </trkpt>
      <trkpt lat="43.6048" lon="1.57238">
        <ele>187</ele>
        <time>2013-05-27T17:10:36Z</time>
      </trkpt>
      <trkpt lat="43.60468" lon="1.57275">
        <ele>186</ele>
        <time>2013-05-27T17:10:42Z</time>
      </trkpt>
      <trkpt lat="43.60463" lon="1.57286">
        <ele>185</ele>
        <time>2013-05-27T17:10:44Z</time>
      </trkpt>
      <trkpt lat="43.60457" lon="1.57312">
        <ele>185</ele>
        <time>2013-05-27T17:10:48Z</time>
      </trkpt>
      <trkpt lat="43.60459" lon="1.57372">
        <ele>182</ele>
        <time>2013-05-27T17:10:55Z</time>
      </trkpt>
      <trkpt lat="43.60463" lon="1.57438">
        <ele>176</ele>
        <time>2013-05-27T17:11:01Z</time>
      </trkpt>
      <trkpt lat="43.60468" lon="1.57478">
        <ele>174</ele>
        <time>2013-05-27T17:11:04Z</time>
      </trkpt>
      <trkpt lat="43.60493" lon="1.57547">
        <ele>170</ele>
        <time>2013-05-27T17:11:09Z</time>
      </trkpt>
      <trkpt lat="43.60504" lon="1.57572">
        <ele>169</ele>
        <time>2013-05-27T17:11:11Z</time>
      </trkpt>
      <trkpt lat="43.60529" lon="1.57616">
        <ele>168</ele>
        <time>2013-05-27T17:11:16Z</time>
      </trkpt>
      <trkpt lat="43.60562" lon="1.57658">
        <ele>169</ele>
        <time>2013-05-27T17:11:23Z</time>
      </trkpt>
      <trkpt lat="43.60569" lon="1.5767">
        <ele>170</ele>
        <time>2013-05-27T17:11:25Z</time>
      </trkpt>
      <trkpt lat="43.60573" lon="1.57682">
        <ele>170</ele>
        <time>2013-05-27T17:11:27Z</time>
      </trkpt>
      <trkpt lat="43.60567" lon="1.57714">
        <ele>171</ele>
        <time>2013-05-27T17:11:33Z</time>
      </trkpt>
      <trkpt lat="43.60547" lon="1.5774">
        <ele>171</ele>
        <time>2013-05-27T17:11:41Z</time>
      </trkpt>
      <trkpt lat="43.6053" lon="1.57755">
        <ele>173</ele>
        <time>2013-05-27T17:11:47Z</time>
      </trkpt>
      <trkpt lat="43.60514" lon="1.57778">
        <ele>173</ele>
        <time>2013-05-27T17:11:54Z</time>
      </trkpt>
      <trkpt lat="43.60496" lon="1.57799">
        <ele>171</ele>
        <time>2013-05-27T17:12:00Z</time>
      </trkpt>
      <trkpt lat="43.60476" lon="1.5782">
        <ele>172</ele>
        <time>2013-05-27T17:12:07Z</time>
      </trkpt>
      <trkpt lat="43.60461" lon="1.57833">
        <ele>172</ele>
        <time>2013-05-27T17:12:13Z</time>
      </trkpt>
      <trkpt lat="43.60446" lon="1.57847">
        <ele>177</ele>
        <time>2013-05-27T17:12:21Z</time>
      </trkpt>
      <trkpt lat="43.60425" lon="1.57863">
        <ele>177</ele>
        <time>2013-05-27T17:12:30Z</time>
      </trkpt>
      <trkpt lat="43.60414" lon="1.57871">
        <ele>176</ele>
        <time>2013-05-27T17:12:36Z</time>
      </trkpt>
      <trkpt lat="43.604" lon="1.57882">
        <ele>177</ele>
        <time>2013-05-27T17:12:45Z</time>
      </trkpt>
      <trkpt lat="43.60399" lon="1.57883">
        <ele>177</ele>
        <time>2013-05-27T17:12:46Z</time>
      </trkpt>
      <trkpt lat="43.60384" lon="1.57904">
        <ele>178</ele>
        <time>2013-05-27T17:12:57Z</time>
      </trkpt>
      <trkpt lat="43.60384" lon="1.57918">
        <ele>185</ele>
        <time>2013-05-27T17:13:04Z</time>
      </trkpt>
      <trkpt lat="43.60388" lon="1.57931">
        <ele>185</ele>
        <time>2013-05-27T17:13:11Z</time>
      </trkpt>
      <trkpt lat="43.60393" lon="1.57945">
        <ele>185</ele>
        <time>2013-05-27T17:13:19Z</time>
      </trkpt>
      <trkpt lat="43.60401" lon="1.57962">
        <ele>186</ele>
        <time>2013-05-27T17:13:28Z</time>
      </trkpt>
      <trkpt lat="43.60407" lon="1.57973">
        <ele>187</ele>
        <time>2013-05-27T17:13:34Z</time>
      </trkpt>
      <trkpt lat="43.60413" lon="1.57991">
        <ele>189</ele>
        <time>2013-05-27T17:13:44Z</time>
      </trkpt>
      <trkpt lat="43.60417" lon="1.58013">
        <ele>192</ele>
        <time>2013-05-27T17:13:54Z</time>
      </trkpt>
      <trkpt lat="43.60411" lon="1.58033">
        <ele>193</ele>
        <time>2013-05-27T17:14:03Z</time>
      </trkpt>
      <trkpt lat="43.60402" lon="1.58049">
        <ele>194</ele>
        <time>2013-05-27T17:14:11Z</time>
      </trkpt>
      <trkpt lat="43.60391" lon="1.58069">
        <ele>194</ele>
        <time>2013-05-27T17:14:21Z</time>
      </trkpt>
      <trkpt lat="43.60381" lon="1.58087">
        <ele>198</ele>
        <time>2013-05-27T17:14:30Z</time>
      </trkpt>
      <trkpt lat="43.60373" lon="1.58101">
        <ele>198</ele>
        <time>2013-05-27T17:14:37Z</time>
      </trkpt>
      <trkpt lat="43.60363" lon="1.58123">
        <ele>198</ele>
        <time>2013-05-27T17:14:47Z</time>
      </trkpt>
      <trkpt lat="43.60353" lon="1.58143">
        <ele>199</ele>
        <time>2013-05-27T17:14:56Z</time>
      </trkpt>
      <trkpt lat="43.60342" lon="1.58166">
        <ele>199</ele>
        <time>2013-05-27T17:15:05Z</time>
      </trkpt>
      <trkpt lat="43.60332" lon="1.5819">
        <ele>201</ele>
        <time>2013-05-27T17:15:14Z</time>
      </trkpt>
      <trkpt lat="43.60321" lon="1.58214">
        <ele>203</ele>
        <time>2013-05-27T17:15:23Z</time>
      </trkpt>
      <trkpt lat="43.6031" lon="1.58236">
        <ele>204</ele>
        <time>2013-05-27T17:15:32Z</time>
      </trkpt>
      <trkpt lat="43.60297" lon="1.58263">
        <ele>207</ele>
        <time>2013-05-27T17:15:42Z</time>
      </trkpt>
      <trkpt lat="43.60285" lon="1.58292">
        <ele>207</ele>
        <time>2013-05-27T17:15:52Z</time>
      </trkpt>
      <trkpt lat="43.60275" lon="1.58321">
        <ele>208</ele>
        <time>2013-05-27T17:16:01Z</time>
      </trkpt>
      <trkpt lat="43.60264" lon="1.58362">
        <ele>210</ele>
        <time>2013-05-27T17:16:12Z</time>
      </trkpt>
      <trkpt lat="43.60258" lon="1.58395">
        <ele>211</ele>
        <time>2013-05-27T17:16:21Z</time>
      </trkpt>
      <trkpt lat="43.6025" lon="1.58426">
        <ele>212</ele>
        <time>2013-05-27T17:16:29Z</time>
      </trkpt>
      <trkpt lat="43.60242" lon="1.58469">
        <ele>208</ele>
        <time>2013-05-27T17:16:38Z</time>
      </trkpt>
      <trkpt lat="43.6024" lon="1.58523">
        <ele>208</ele>
        <time>2013-05-27T17:16:47Z</time>
      </trkpt>
      <trkpt lat="43.60239" lon="1.58549">
        <ele>207</ele>
        <time>2013-05-27T17:16:51Z</time>
      </trkpt>
      <trkpt lat="43.60239" lon="1.58555">
        <ele>207</ele>
        <time>2013-05-27T17:16:52Z</time>
      </trkpt>
      <trkpt lat="43.60238" lon="1.58561">
        <ele>208</ele>
        <time>2013-05-27T17:16:53Z</time>
      </trkpt>
      <trkpt lat="43.60227" lon="1.58626">
        <ele>208</ele>
        <time>2013-05-27T17:17:03Z</time>
      </trkpt>
      <trkpt lat="43.60212" lon="1.58677">
        <ele>210</ele>
        <time>2013-05-27T17:17:11Z</time>
      </trkpt>
      <trkpt lat="43.60194" lon="1.58734">
        <ele>211</ele>
        <time>2013-05-27T17:17:20Z</time>
      </trkpt>
      <trkpt lat="43.60176" lon="1.58789">
        <ele>214</ele>
        <time>2013-05-27T17:17:29Z</time>
      </trkpt>
      <trkpt lat="43.60157" lon="1.5885">
        <ele>214</ele>
        <time>2013-05-27T17:17:39Z</time>
      </trkpt>
      <trkpt lat="43.60141" lon="1.58918">
        <ele>214</ele>
        <time>2013-05-27T17:17:49Z</time>
      </trkpt>
      <trkpt lat="43.60135" lon="1.58953">
        <ele>213</ele>
        <time>2013-05-27T17:17:54Z</time>
      </trkpt>
      <trkpt lat="43.60125" lon="1.58979">
        <ele>213</ele>
        <time>2013-05-27T17:17:58Z</time>
      </trkpt>
      <trkpt lat="43.60121" lon="1.58985">
        <ele>212</ele>
        <time>2013-05-27T17:17:59Z</time>
      </trkpt>
      <trkpt lat="43.60118" lon="1.58992">
        <ele>212</ele>
        <time>2013-05-27T17:18:00Z</time>
      </trkpt>
      <trkpt lat="43.60116" lon="1.58998">
        <ele>212</ele>
        <time>2013-05-27T17:18:01Z</time>
      </trkpt>
      <trkpt lat="43.60114" lon="1.59005">
        <ele>214</ele>
        <time>2013-05-27T17:18:02Z</time>
      </trkpt>
      <trkpt lat="43.60102" lon="1.59067">
        <ele>215</ele>
        <time>2013-05-27T17:18:11Z</time>
      </trkpt>
      <trkpt lat="43.60101" lon="1.59075">
        <ele>215</ele>
        <time>2013-05-27T17:18:12Z</time>
      </trkpt>
      <trkpt lat="43.601" lon="1.59082">
        <ele>214</ele>
        <time>2013-05-27T17:18:13Z</time>
      </trkpt>
      <trkpt lat="43.60099" lon="1.59089">
        <ele>215</ele>
        <time>2013-05-27T17:18:14Z</time>
      </trkpt>
      <trkpt lat="43.60097" lon="1.59097">
        <ele>215</ele>
        <time>2013-05-27T17:18:15Z</time>
      </trkpt>
      <trkpt lat="43.60097" lon="1.59105">
        <ele>215</ele>
        <time>2013-05-27T17:18:16Z</time>
      </trkpt>
      <trkpt lat="43.60097" lon="1.59113">
        <ele>215</ele>
        <time>2013-05-27T17:18:17Z</time>
      </trkpt>
      <trkpt lat="43.601" lon="1.59122">
        <ele>215</ele>
        <time>2013-05-27T17:18:18Z</time>
      </trkpt>
      <trkpt lat="43.60102" lon="1.5913">
        <ele>215</ele>
        <time>2013-05-27T17:18:19Z</time>
      </trkpt>
      <trkpt lat="43.60111" lon="1.59153">
        <ele>215</ele>
        <time>2013-05-27T17:18:22Z</time>
      </trkpt>
      <trkpt lat="43.60115" lon="1.5916">
        <ele>215</ele>
        <time>2013-05-27T17:18:23Z</time>
      </trkpt>
      <trkpt lat="43.60157" lon="1.59221">
        <ele>214</ele>
        <time>2013-05-27T17:18:32Z</time>
      </trkpt>
      <trkpt lat="43.60193" lon="1.59274">
        <ele>217</ele>
        <time>2013-05-27T17:18:41Z</time>
      </trkpt>
      <trkpt lat="43.60223" lon="1.59306">
        <ele>218</ele>
        <time>2013-05-27T17:18:47Z</time>
      </trkpt>
      <trkpt lat="43.60241" lon="1.5933">
        <ele>220</ele>
        <time>2013-05-27T17:18:52Z</time>
      </trkpt>
      <trkpt lat="43.60243" lon="1.59335">
        <ele>220</ele>
        <time>2013-05-27T17:18:53Z</time>
      </trkpt>
      <trkpt lat="43.60244" lon="1.5934">
        <ele>220</ele>
        <time>2013-05-27T17:18:54Z</time>
      </trkpt>
      <trkpt lat="43.60243" lon="1.59346">
        <ele>219</ele>
        <time>2013-05-27T17:18:55Z</time>
      </trkpt>
      <trkpt lat="43.6024" lon="1.59351">
        <ele>219</ele>
        <time>2013-05-27T17:18:56Z</time>
      </trkpt>
      <trkpt lat="43.60238" lon="1.59357">
        <ele>218</ele>
        <time>2013-05-27T17:18:57Z</time>
      </trkpt>
      <trkpt lat="43.60235" lon="1.59362">
        <ele>218</ele>
        <time>2013-05-27T17:18:58Z</time>
      </trkpt>
      <trkpt lat="43.60212" lon="1.59418">
        <ele>217</ele>
        <time>2013-05-27T17:19:07Z</time>
      </trkpt>
      <trkpt lat="43.60189" lon="1.59481">
        <ele>216</ele>
        <time>2013-05-27T17:19:16Z</time>
      </trkpt>
      <trkpt lat="43.6016" lon="1.59548">
        <ele>215</ele>
        <time>2013-05-27T17:19:25Z</time>
      </trkpt>
      <trkpt lat="43.60129" lon="1.59595">
        <ele>219</ele>
        <time>2013-05-27T17:19:31Z</time>
      </trkpt>
      <trkpt lat="43.60122" lon="1.59601">
        <ele>219</ele>
        <time>2013-05-27T17:19:32Z</time>
      </trkpt>
      <trkpt lat="43.60077" lon="1.59645">
        <ele>217</ele>
        <time>2013-05-27T17:19:40Z</time>
      </trkpt>
      <trkpt lat="43.60045" lon="1.59684">
        <ele>219</ele>
        <time>2013-05-27T17:19:48Z</time>
      </trkpt>
      <trkpt lat="43.60015" lon="1.59717">
        <ele>219</ele>
        <time>2013-05-27T17:19:56Z</time>
      </trkpt>
      <trkpt lat="43.60007" lon="1.59726">
        <ele>219</ele>
        <time>2013-05-27T17:19:58Z</time>
      </trkpt>
      <trkpt lat="43.59985" lon="1.59762">
        <ele>217</ele>
        <time>2013-05-27T17:20:05Z</time>
      </trkpt>
      <trkpt lat="43.59965" lon="1.59812">
        <ele>216</ele>
        <time>2013-05-27T17:20:12Z</time>
      </trkpt>
      <trkpt lat="43.59946" lon="1.59868">
        <ele>216</ele>
        <time>2013-05-27T17:20:19Z</time>
      </trkpt>
      <trkpt lat="43.59929" lon="1.59911">
        <ele>214</ele>
        <time>2013-05-27T17:20:24Z</time>
      </trkpt>
      <trkpt lat="43.5993" lon="1.59919">
        <ele>215</ele>
        <time>2013-05-27T17:20:25Z</time>
      </trkpt>
      <trkpt lat="43.59933" lon="1.59926">
        <ele>215</ele>
        <time>2013-05-27T17:20:26Z</time>
      </trkpt>
      <trkpt lat="43.59937" lon="1.59931">
        <ele>216</ele>
        <time>2013-05-27T17:20:27Z</time>
      </trkpt>
      <trkpt lat="43.59942" lon="1.59935">
        <ele>217</ele>
        <time>2013-05-27T17:20:28Z</time>
      </trkpt>
      <trkpt lat="43.59946" lon="1.59939">
        <ele>217</ele>
        <time>2013-05-27T17:20:29Z</time>
      </trkpt>
      <trkpt lat="43.59965" lon="1.59952">
        <ele>219</ele>
        <time>2013-05-27T17:20:33Z</time>
      </trkpt>
      <trkpt lat="43.59973" lon="1.59959">
        <ele>219</ele>
        <time>2013-05-27T17:20:35Z</time>
      </trkpt>
      <trkpt lat="43.59978" lon="1.59962">
        <ele>220</ele>
        <time>2013-05-27T17:20:36Z</time>
      </trkpt>
      <trkpt lat="43.60003" lon="1.59979">
        <ele>224</ele>
        <time>2013-05-27T17:20:43Z</time>
      </trkpt>
      <trkpt lat="43.60026" lon="1.59996">
        <ele>224</ele>
        <time>2013-05-27T17:20:50Z</time>
      </trkpt>
      <trkpt lat="43.60061" lon="1.60017">
        <ele>223</ele>
        <time>2013-05-27T17:20:58Z</time>
      </trkpt>
      <trkpt lat="43.60099" lon="1.60046">
        <ele>223</ele>
        <time>2013-05-27T17:21:05Z</time>
      </trkpt>
      <trkpt lat="43.60104" lon="1.60052">
        <ele>223</ele>
        <time>2013-05-27T17:21:06Z</time>
      </trkpt>
      <trkpt lat="43.60107" lon="1.6006">
        <ele>223</ele>
        <time>2013-05-27T17:21:07Z</time>
      </trkpt>
      <trkpt lat="43.60108" lon="1.60069">
        <ele>223</ele>
        <time>2013-05-27T17:21:08Z</time>
      </trkpt>
      <trkpt lat="43.60108" lon="1.60077">
        <ele>223</ele>
        <time>2013-05-27T17:21:09Z</time>
      </trkpt>
      <trkpt lat="43.60106" lon="1.60085">
        <ele>223</ele>
        <time>2013-05-27T17:21:10Z</time>
      </trkpt>
      <trkpt lat="43.60105" lon="1.60092">
        <ele>223</ele>
        <time>2013-05-27T17:21:11Z</time>
      </trkpt>
      <trkpt lat="43.60103" lon="1.60099">
        <ele>223</ele>
        <time>2013-05-27T17:21:12Z</time>
      </trkpt>
      <trkpt lat="43.60089" lon="1.60167">
        <ele>226</ele>
        <time>2013-05-27T17:21:22Z</time>
      </trkpt>
      <trkpt lat="43.60077" lon="1.60219">
        <ele>226</ele>
        <time>2013-05-27T17:21:30Z</time>
      </trkpt>
      <trkpt lat="43.60054" lon="1.60296">
        <ele>225</ele>
        <time>2013-05-27T17:21:42Z</time>
      </trkpt>
      <trkpt lat="43.60039" lon="1.60358">
        <ele>224</ele>
        <time>2013-05-27T17:21:51Z</time>
      </trkpt>
      <trkpt lat="43.60037" lon="1.60365">
        <ele>224</ele>
        <time>2013-05-27T17:21:52Z</time>
      </trkpt>
      <trkpt lat="43.60022" lon="1.60418">
        <ele>225</ele>
        <time>2013-05-27T17:22:00Z</time>
      </trkpt>
      <trkpt lat="43.60006" lon="1.60471">
        <ele>225</ele>
        <time>2013-05-27T17:22:08Z</time>
      </trkpt>
      <trkpt lat="43.60001" lon="1.60481">
        <ele>225</ele>
        <time>2013-05-27T17:22:10Z</time>
      </trkpt>
      <trkpt lat="43.59997" lon="1.60484">
        <ele>228</ele>
        <time>2013-05-27T17:22:11Z</time>
      </trkpt>
      <trkpt lat="43.59993" lon="1.60483">
        <ele>228</ele>
        <time>2013-05-27T17:22:12Z</time>
      </trkpt>
      <trkpt lat="43.59989" lon="1.60481">
        <ele>228</ele>
        <time>2013-05-27T17:22:13Z</time>
      </trkpt>
      <trkpt lat="43.59985" lon="1.60478">
        <ele>228</ele>
        <time>2013-05-27T17:22:14Z</time>
      </trkpt>
      <trkpt lat="43.59982" lon="1.60476">
        <ele>228</ele>
        <time>2013-05-27T17:22:15Z</time>
      </trkpt>
      <trkpt lat="43.59954" lon="1.60452">
        <ele>229</ele>
        <time>2013-05-27T17:22:24Z</time>
      </trkpt>
      <trkpt lat="43.59928" lon="1.60435">
        <ele>229</ele>
        <time>2013-05-27T17:22:32Z</time>
      </trkpt>
      <trkpt lat="43.59914" lon="1.60444">
        <ele>229</ele>
        <time>2013-05-27T17:22:36Z</time>
      </trkpt>
      <trkpt lat="43.59912" lon="1.60448">
        <ele>230</ele>
        <time>2013-05-27T17:22:37Z</time>
      </trkpt>
      <trkpt lat="43.59906" lon="1.60457">
        <ele>230</ele>
        <time>2013-05-27T17:22:39Z</time>
      </trkpt>
      <trkpt lat="43.59887" lon="1.60505">
        <ele>232</ele>
        <time>2013-05-27T17:22:48Z</time>
      </trkpt>
      <trkpt lat="43.59885" lon="1.6051">
        <ele>232</ele>
        <time>2013-05-27T17:22:49Z</time>
      </trkpt>
      <trkpt lat="43.59884" lon="1.60516">
        <ele>232</ele>
        <time>2013-05-27T17:22:50Z</time>
      </trkpt>
      <trkpt lat="43.59883" lon="1.60522">
        <ele>232</ele>
        <time>2013-05-27T17:22:51Z</time>
      </trkpt>
      <trkpt lat="43.59882" lon="1.60528">
        <ele>232</ele>
        <time>2013-05-27T17:22:52Z</time>
      </trkpt>
      <trkpt lat="43.5988" lon="1.60532">
        <ele>232</ele>
        <time>2013-05-27T17:22:53Z</time>
      </trkpt>
      <trkpt lat="43.59877" lon="1.60536">
        <ele>232</ele>
        <time>2013-05-27T17:22:54Z</time>
      </trkpt>
      <trkpt lat="43.59873" lon="1.60538">
        <ele>232</ele>
        <time>2013-05-27T17:22:55Z</time>
      </trkpt>
      <trkpt lat="43.5987" lon="1.6054">
        <ele>232</ele>
        <time>2013-05-27T17:22:56Z</time>
      </trkpt>
      <trkpt lat="43.59867" lon="1.60541">
        <ele>232</ele>
        <time>2013-05-27T17:22:57Z</time>
      </trkpt>
      <trkpt lat="43.59864" lon="1.6054">
        <ele>232</ele>
        <time>2013-05-27T17:22:58Z</time>
      </trkpt>
      <trkpt lat="43.59862" lon="1.60537">
        <ele>232</ele>
        <time>2013-05-27T17:22:59Z</time>
      </trkpt>
      <trkpt lat="43.59861" lon="1.60534">
        <ele>232</ele>
        <time>2013-05-27T17:23:00Z</time>
      </trkpt>
      <trkpt lat="43.5986" lon="1.6053">
        <ele>232</ele>
        <time>2013-05-27T17:23:01Z</time>
      </trkpt>
      <trkpt lat="43.5986" lon="1.60523">
        <ele>232</ele>
        <time>2013-05-27T17:23:03Z</time>
      </trkpt>
    </trkseg>
  </trk>
</gpx>